<?xml version="1.0" encoding="UTF-8" standalone="no" ?>
<gpx xmlns="http://www.topografix.com/GPX/1/1" xmlns:xsi="http://www.w3.org/2001/XMLSchema-instance" xsi:schemaLocation="http://www.topografix.com/GPX/1/1 http://www.topografix.com/GPX/1/1/gpx.xsd" version="1.1" creator="VisuGPX - https://www.visugpx.com">
  <metadata>
    <name>Course à pied, le long de la Tamise, Londres 10 2012</name>
    <desc><![CDATA[Course à pied, à Londres, le long de la Tamise, de Charing Cross jusque près de Sugar Quay (en face du navire-musée HMS Belfast), 10 2012.]]></desc>
  </metadata>
  <trk>
    <name><![CDATA[Running 10/30/12 7:15 am]]></name>
    <trkseg>
      <trkpt lat="51.50745" lon="-0.12706">
        <ele>26.7</ele>
        <time>2012-10-30T06:15:39Z</time>
      </trkpt>
      <trkpt lat="51.50742" lon="-0.12699">
        <ele>27</ele>
        <time>2012-10-30T06:15:42Z</time>
      </trkpt>
      <trkpt lat="51.50739" lon="-0.12685">
        <ele>27.5</ele>
        <time>2012-10-30T06:15:46Z</time>
      </trkpt>
      <trkpt lat="51.50738" lon="-0.1267">
        <ele>27.9</ele>
        <time>2012-10-30T06:15:52Z</time>
      </trkpt>
      <trkpt lat="51.50736" lon="-0.12655">
        <ele>28.2</ele>
        <time>2012-10-30T06:15:56Z</time>
      </trkpt>
      <trkpt lat="51.50735" lon="-0.12638">
        <ele>28.5</ele>
        <time>2012-10-30T06:16:00Z</time>
      </trkpt>
      <trkpt lat="51.50731" lon="-0.12622">
        <ele>29.3</ele>
        <time>2012-10-30T06:16:04Z</time>
      </trkpt>
      <trkpt lat="51.50727" lon="-0.12608">
        <ele>29.8</ele>
        <time>2012-10-30T06:16:08Z</time>
      </trkpt>
      <trkpt lat="51.50725" lon="-0.12592">
        <ele>29.7</ele>
        <time>2012-10-30T06:16:12Z</time>
      </trkpt>
      <trkpt lat="51.50721" lon="-0.12575">
        <ele>29.6</ele>
        <time>2012-10-30T06:16:16Z</time>
      </trkpt>
      <trkpt lat="51.50717" lon="-0.12558">
        <ele>29.5</ele>
        <time>2012-10-30T06:16:20Z</time>
      </trkpt>
      <trkpt lat="51.50715" lon="-0.12543">
        <ele>29.5</ele>
        <time>2012-10-30T06:16:23Z</time>
      </trkpt>
      <trkpt lat="51.50712" lon="-0.12525">
        <ele>29.3</ele>
        <time>2012-10-30T06:16:26Z</time>
      </trkpt>
      <trkpt lat="51.50708" lon="-0.12508">
        <ele>28.9</ele>
        <time>2012-10-30T06:16:29Z</time>
      </trkpt>
      <trkpt lat="51.50705" lon="-0.12492">
        <ele>28.5</ele>
        <time>2012-10-30T06:16:32Z</time>
      </trkpt>
      <trkpt lat="51.50704" lon="-0.12476">
        <ele>28.2</ele>
        <time>2012-10-30T06:16:35Z</time>
      </trkpt>
      <trkpt lat="51.50701" lon="-0.12462">
        <ele>27.8</ele>
        <time>2012-10-30T06:16:38Z</time>
      </trkpt>
      <trkpt lat="51.50699" lon="-0.12448">
        <ele>27.5</ele>
        <time>2012-10-30T06:16:41Z</time>
      </trkpt>
      <trkpt lat="51.50695" lon="-0.12431">
        <ele>27.2</ele>
        <time>2012-10-30T06:16:45Z</time>
      </trkpt>
      <trkpt lat="51.5069" lon="-0.12419">
        <ele>26.9</ele>
        <time>2012-10-30T06:16:48Z</time>
      </trkpt>
      <trkpt lat="51.50685" lon="-0.12407">
        <ele>26.6</ele>
        <time>2012-10-30T06:16:51Z</time>
      </trkpt>
      <trkpt lat="51.5068" lon="-0.1239">
        <ele>26.4</ele>
        <time>2012-10-30T06:16:54Z</time>
      </trkpt>
      <trkpt lat="51.50677" lon="-0.12373">
        <ele>26.1</ele>
        <time>2012-10-30T06:16:57Z</time>
      </trkpt>
      <trkpt lat="51.50676" lon="-0.12355">
        <ele>24.9</ele>
        <time>2012-10-30T06:17:00Z</time>
      </trkpt>
      <trkpt lat="51.50675" lon="-0.12338">
        <ele>23.7</ele>
        <time>2012-10-30T06:17:04Z</time>
      </trkpt>
      <trkpt lat="51.50672" lon="-0.12324">
        <ele>22.5</ele>
        <time>2012-10-30T06:17:08Z</time>
      </trkpt>
      <trkpt lat="51.50669" lon="-0.12309">
        <ele>21.4</ele>
        <time>2012-10-30T06:17:12Z</time>
      </trkpt>
      <trkpt lat="51.50669" lon="-0.12293">
        <ele>20.2</ele>
        <time>2012-10-30T06:17:18Z</time>
      </trkpt>
      <trkpt lat="51.50663" lon="-0.1228">
        <ele>19</ele>
        <time>2012-10-30T06:17:24Z</time>
      </trkpt>
      <trkpt lat="51.50669" lon="-0.12265">
        <ele>18</ele>
        <time>2012-10-30T06:17:30Z</time>
      </trkpt>
      <trkpt lat="51.50677" lon="-0.12254">
        <ele>16</ele>
        <time>2012-10-30T06:17:34Z</time>
      </trkpt>
      <trkpt lat="51.50687" lon="-0.12248">
        <ele>14</ele>
        <time>2012-10-30T06:17:41Z</time>
      </trkpt>
      <trkpt lat="51.50696" lon="-0.12242">
        <ele>12</ele>
        <time>2012-10-30T06:17:46Z</time>
      </trkpt>
      <trkpt lat="51.50705" lon="-0.1223">
        <ele>10.4</ele>
        <time>2012-10-30T06:17:49Z</time>
      </trkpt>
      <trkpt lat="51.50708" lon="-0.12215">
        <ele>9.7</ele>
        <time>2012-10-30T06:17:52Z</time>
      </trkpt>
      <trkpt lat="51.50707" lon="-0.12198">
        <ele>9.1</ele>
        <time>2012-10-30T06:17:56Z</time>
      </trkpt>
      <trkpt lat="51.50709" lon="-0.12179">
        <ele>8.5</ele>
        <time>2012-10-30T06:18:00Z</time>
      </trkpt>
      <trkpt lat="51.50714" lon="-0.12163">
        <ele>7.8</ele>
        <time>2012-10-30T06:18:04Z</time>
      </trkpt>
      <trkpt lat="51.50724" lon="-0.12158">
        <ele>7</ele>
        <time>2012-10-30T06:18:07Z</time>
      </trkpt>
      <trkpt lat="51.50734" lon="-0.12151">
        <ele>6.2</ele>
        <time>2012-10-30T06:18:10Z</time>
      </trkpt>
      <trkpt lat="51.50742" lon="-0.12143">
        <ele>5.4</ele>
        <time>2012-10-30T06:18:13Z</time>
      </trkpt>
      <trkpt lat="51.5075" lon="-0.12136">
        <ele>5.5</ele>
        <time>2012-10-30T06:18:16Z</time>
      </trkpt>
      <trkpt lat="51.5076" lon="-0.12131">
        <ele>6.6</ele>
        <time>2012-10-30T06:18:20Z</time>
      </trkpt>
      <trkpt lat="51.50767" lon="-0.12122">
        <ele>7.7</ele>
        <time>2012-10-30T06:18:24Z</time>
      </trkpt>
      <trkpt lat="51.50776" lon="-0.12112">
        <ele>8.5</ele>
        <time>2012-10-30T06:18:29Z</time>
      </trkpt>
      <trkpt lat="51.50786" lon="-0.12102">
        <ele>9.2</ele>
        <time>2012-10-30T06:18:34Z</time>
      </trkpt>
      <trkpt lat="51.50795" lon="-0.12095">
        <ele>9.9</ele>
        <time>2012-10-30T06:18:39Z</time>
      </trkpt>
      <trkpt lat="51.50804" lon="-0.12086">
        <ele>10.6</ele>
        <time>2012-10-30T06:18:44Z</time>
      </trkpt>
      <trkpt lat="51.50812" lon="-0.12077">
        <ele>11</ele>
        <time>2012-10-30T06:18:49Z</time>
      </trkpt>
      <trkpt lat="51.50821" lon="-0.12071">
        <ele>11.5</ele>
        <time>2012-10-30T06:18:54Z</time>
      </trkpt>
      <trkpt lat="51.5083" lon="-0.12065">
        <ele>12.1</ele>
        <time>2012-10-30T06:18:58Z</time>
      </trkpt>
      <trkpt lat="51.50838" lon="-0.12055">
        <ele>13</ele>
        <time>2012-10-30T06:19:02Z</time>
      </trkpt>
      <trkpt lat="51.50848" lon="-0.12044">
        <ele>13.9</ele>
        <time>2012-10-30T06:19:06Z</time>
      </trkpt>
      <trkpt lat="51.50858" lon="-0.12036">
        <ele>13.9</ele>
        <time>2012-10-30T06:19:11Z</time>
      </trkpt>
      <trkpt lat="51.50865" lon="-0.12024">
        <ele>13.9</ele>
        <time>2012-10-30T06:19:16Z</time>
      </trkpt>
      <trkpt lat="51.50873" lon="-0.12015">
        <ele>13.9</ele>
        <time>2012-10-30T06:19:19Z</time>
      </trkpt>
      <trkpt lat="51.50881" lon="-0.12007">
        <ele>13.6</ele>
        <time>2012-10-30T06:19:23Z</time>
      </trkpt>
      <trkpt lat="51.50888" lon="-0.11993">
        <ele>13.4</ele>
        <time>2012-10-30T06:19:29Z</time>
      </trkpt>
      <trkpt lat="51.50895" lon="-0.11982">
        <ele>13.1</ele>
        <time>2012-10-30T06:19:34Z</time>
      </trkpt>
      <trkpt lat="51.50903" lon="-0.1197">
        <ele>13.2</ele>
        <time>2012-10-30T06:19:39Z</time>
      </trkpt>
      <trkpt lat="51.5091" lon="-0.11956">
        <ele>13.3</ele>
        <time>2012-10-30T06:19:44Z</time>
      </trkpt>
      <trkpt lat="51.50917" lon="-0.11943">
        <ele>13.4</ele>
        <time>2012-10-30T06:19:48Z</time>
      </trkpt>
      <trkpt lat="51.50925" lon="-0.11935">
        <ele>13.1</ele>
        <time>2012-10-30T06:19:51Z</time>
      </trkpt>
      <trkpt lat="51.50932" lon="-0.11922">
        <ele>13.2</ele>
        <time>2012-10-30T06:19:55Z</time>
      </trkpt>
      <trkpt lat="51.50939" lon="-0.11911">
        <ele>13.3</ele>
        <time>2012-10-30T06:20:00Z</time>
      </trkpt>
      <trkpt lat="51.50945" lon="-0.11898">
        <ele>13.4</ele>
        <time>2012-10-30T06:20:04Z</time>
      </trkpt>
      <trkpt lat="51.50951" lon="-0.11883">
        <ele>13.5</ele>
        <time>2012-10-30T06:20:08Z</time>
      </trkpt>
      <trkpt lat="51.50957" lon="-0.11872">
        <ele>13.8</ele>
        <time>2012-10-30T06:20:11Z</time>
      </trkpt>
      <trkpt lat="51.50964" lon="-0.11859">
        <ele>14.2</ele>
        <time>2012-10-30T06:20:14Z</time>
      </trkpt>
      <trkpt lat="51.50966" lon="-0.11844">
        <ele>14.5</ele>
        <time>2012-10-30T06:20:18Z</time>
      </trkpt>
      <trkpt lat="51.50967" lon="-0.11827">
        <ele>14.9</ele>
        <time>2012-10-30T06:20:23Z</time>
      </trkpt>
      <trkpt lat="51.5097" lon="-0.11811">
        <ele>15.3</ele>
        <time>2012-10-30T06:20:27Z</time>
      </trkpt>
      <trkpt lat="51.50972" lon="-0.11793">
        <ele>15.6</ele>
        <time>2012-10-30T06:20:31Z</time>
      </trkpt>
      <trkpt lat="51.50976" lon="-0.11779">
        <ele>16</ele>
        <time>2012-10-30T06:20:34Z</time>
      </trkpt>
      <trkpt lat="51.50979" lon="-0.11764">
        <ele>16</ele>
        <time>2012-10-30T06:20:37Z</time>
      </trkpt>
      <trkpt lat="51.50984" lon="-0.11752">
        <ele>15.9</ele>
        <time>2012-10-30T06:20:40Z</time>
      </trkpt>
      <trkpt lat="51.5099" lon="-0.11742">
        <ele>15.8</ele>
        <time>2012-10-30T06:20:43Z</time>
      </trkpt>
      <trkpt lat="51.50997" lon="-0.11729">
        <ele>15.7</ele>
        <time>2012-10-30T06:20:46Z</time>
      </trkpt>
      <trkpt lat="51.51005" lon="-0.11714">
        <ele>15.6</ele>
        <time>2012-10-30T06:20:49Z</time>
      </trkpt>
      <trkpt lat="51.51012" lon="-0.11699">
        <ele>15.5</ele>
        <time>2012-10-30T06:20:54Z</time>
      </trkpt>
      <trkpt lat="51.51018" lon="-0.11685">
        <ele>15.4</ele>
        <time>2012-10-30T06:20:55Z</time>
      </trkpt>
      <trkpt lat="51.51023" lon="-0.1167">
        <ele>15.2</ele>
        <time>2012-10-30T06:20:58Z</time>
      </trkpt>
      <trkpt lat="51.51026" lon="-0.11656">
        <ele>15</ele>
        <time>2012-10-30T06:21:01Z</time>
      </trkpt>
      <trkpt lat="51.5103" lon="-0.11641">
        <ele>15.4</ele>
        <time>2012-10-30T06:21:05Z</time>
      </trkpt>
      <trkpt lat="51.51034" lon="-0.11626">
        <ele>15.7</ele>
        <time>2012-10-30T06:21:09Z</time>
      </trkpt>
      <trkpt lat="51.51036" lon="-0.11611">
        <ele>15.9</ele>
        <time>2012-10-30T06:21:12Z</time>
      </trkpt>
      <trkpt lat="51.5104" lon="-0.11594">
        <ele>16.2</ele>
        <time>2012-10-30T06:21:16Z</time>
      </trkpt>
      <trkpt lat="51.51043" lon="-0.11577">
        <ele>16.5</ele>
        <time>2012-10-30T06:21:20Z</time>
      </trkpt>
      <trkpt lat="51.51045" lon="-0.1156">
        <ele>16.7</ele>
        <time>2012-10-30T06:21:24Z</time>
      </trkpt>
      <trkpt lat="51.51049" lon="-0.11545">
        <ele>17</ele>
        <time>2012-10-30T06:21:30Z</time>
      </trkpt>
      <trkpt lat="51.51052" lon="-0.1153">
        <ele>17.2</ele>
        <time>2012-10-30T06:21:34Z</time>
      </trkpt>
      <trkpt lat="51.51056" lon="-0.11513">
        <ele>17.5</ele>
        <time>2012-10-30T06:21:38Z</time>
      </trkpt>
      <trkpt lat="51.5106" lon="-0.11496">
        <ele>17.7</ele>
        <time>2012-10-30T06:21:41Z</time>
      </trkpt>
      <trkpt lat="51.51061" lon="-0.1148">
        <ele>18</ele>
        <time>2012-10-30T06:21:44Z</time>
      </trkpt>
      <trkpt lat="51.51063" lon="-0.11464">
        <ele>17.7</ele>
        <time>2012-10-30T06:21:47Z</time>
      </trkpt>
      <trkpt lat="51.51065" lon="-0.11448">
        <ele>17.5</ele>
        <time>2012-10-30T06:21:50Z</time>
      </trkpt>
      <trkpt lat="51.51067" lon="-0.11433">
        <ele>17.2</ele>
        <time>2012-10-30T06:21:53Z</time>
      </trkpt>
      <trkpt lat="51.51068" lon="-0.11418">
        <ele>16.9</ele>
        <time>2012-10-30T06:21:56Z</time>
      </trkpt>
      <trkpt lat="51.5107" lon="-0.11403">
        <ele>16.6</ele>
        <time>2012-10-30T06:21:59Z</time>
      </trkpt>
      <trkpt lat="51.51072" lon="-0.11389">
        <ele>16.4</ele>
        <time>2012-10-30T06:22:02Z</time>
      </trkpt>
      <trkpt lat="51.51073" lon="-0.11374">
        <ele>16.1</ele>
        <time>2012-10-30T06:22:05Z</time>
      </trkpt>
      <trkpt lat="51.51075" lon="-0.11358">
        <ele>15.9</ele>
        <time>2012-10-30T06:22:08Z</time>
      </trkpt>
      <trkpt lat="51.51075" lon="-0.11342">
        <ele>15.7</ele>
        <time>2012-10-30T06:22:11Z</time>
      </trkpt>
      <trkpt lat="51.51075" lon="-0.11326">
        <ele>15.5</ele>
        <time>2012-10-30T06:22:14Z</time>
      </trkpt>
      <trkpt lat="51.51074" lon="-0.11311">
        <ele>15.4</ele>
        <time>2012-10-30T06:22:17Z</time>
      </trkpt>
      <trkpt lat="51.51076" lon="-0.11296">
        <ele>15.2</ele>
        <time>2012-10-30T06:22:20Z</time>
      </trkpt>
      <trkpt lat="51.51078" lon="-0.11278">
        <ele>15.1</ele>
        <time>2012-10-30T06:22:24Z</time>
      </trkpt>
      <trkpt lat="51.5108" lon="-0.11259">
        <ele>15.2</ele>
        <time>2012-10-30T06:22:28Z</time>
      </trkpt>
      <trkpt lat="51.51084" lon="-0.11244">
        <ele>15.3</ele>
        <time>2012-10-30T06:22:31Z</time>
      </trkpt>
      <trkpt lat="51.51088" lon="-0.11227">
        <ele>15.4</ele>
        <time>2012-10-30T06:22:35Z</time>
      </trkpt>
      <trkpt lat="51.51089" lon="-0.11209">
        <ele>15.5</ele>
        <time>2012-10-30T06:22:39Z</time>
      </trkpt>
      <trkpt lat="51.51091" lon="-0.11191">
        <ele>15.2</ele>
        <time>2012-10-30T06:22:43Z</time>
      </trkpt>
      <trkpt lat="51.51092" lon="-0.11173">
        <ele>14.9</ele>
        <time>2012-10-30T06:22:47Z</time>
      </trkpt>
      <trkpt lat="51.51095" lon="-0.11156">
        <ele>14.6</ele>
        <time>2012-10-30T06:22:51Z</time>
      </trkpt>
      <trkpt lat="51.51096" lon="-0.11141">
        <ele>14.4</ele>
        <time>2012-10-30T06:22:56Z</time>
      </trkpt>
      <trkpt lat="51.51097" lon="-0.11126">
        <ele>14.1</ele>
        <time>2012-10-30T06:23:00Z</time>
      </trkpt>
      <trkpt lat="51.51098" lon="-0.1111">
        <ele>13.5</ele>
        <time>2012-10-30T06:23:05Z</time>
      </trkpt>
      <trkpt lat="51.51095" lon="-0.11095">
        <ele>12.7</ele>
        <time>2012-10-30T06:23:10Z</time>
      </trkpt>
      <trkpt lat="51.51096" lon="-0.11079">
        <ele>12</ele>
        <time>2012-10-30T06:23:14Z</time>
      </trkpt>
      <trkpt lat="51.51098" lon="-0.11061">
        <ele>11.3</ele>
        <time>2012-10-30T06:23:18Z</time>
      </trkpt>
      <trkpt lat="51.51099" lon="-0.11046">
        <ele>10.5</ele>
        <time>2012-10-30T06:23:21Z</time>
      </trkpt>
      <trkpt lat="51.51097" lon="-0.1103">
        <ele>9.8</ele>
        <time>2012-10-30T06:23:24Z</time>
      </trkpt>
      <trkpt lat="51.51096" lon="-0.11014">
        <ele>9.5</ele>
        <time>2012-10-30T06:23:27Z</time>
      </trkpt>
      <trkpt lat="51.51094" lon="-0.10999">
        <ele>9.1</ele>
        <time>2012-10-30T06:23:30Z</time>
      </trkpt>
      <trkpt lat="51.51093" lon="-0.10982">
        <ele>8.7</ele>
        <time>2012-10-30T06:23:33Z</time>
      </trkpt>
      <trkpt lat="51.51093" lon="-0.10966">
        <ele>8.4</ele>
        <time>2012-10-30T06:23:36Z</time>
      </trkpt>
      <trkpt lat="51.51094" lon="-0.1095">
        <ele>8</ele>
        <time>2012-10-30T06:23:39Z</time>
      </trkpt>
      <trkpt lat="51.51094" lon="-0.10933">
        <ele>8</ele>
        <time>2012-10-30T06:23:42Z</time>
      </trkpt>
      <trkpt lat="51.51094" lon="-0.10916">
        <ele>8</ele>
        <time>2012-10-30T06:23:45Z</time>
      </trkpt>
      <trkpt lat="51.51094" lon="-0.10899">
        <ele>8</ele>
        <time>2012-10-30T06:23:48Z</time>
      </trkpt>
      <trkpt lat="51.51093" lon="-0.10883">
        <ele>8</ele>
        <time>2012-10-30T06:23:51Z</time>
      </trkpt>
      <trkpt lat="51.51092" lon="-0.10868">
        <ele>8</ele>
        <time>2012-10-30T06:23:54Z</time>
      </trkpt>
      <trkpt lat="51.51093" lon="-0.10851">
        <ele>8.3</ele>
        <time>2012-10-30T06:23:58Z</time>
      </trkpt>
      <trkpt lat="51.51093" lon="-0.10834">
        <ele>8.5</ele>
        <time>2012-10-30T06:24:02Z</time>
      </trkpt>
      <trkpt lat="51.51093" lon="-0.10815">
        <ele>8.8</ele>
        <time>2012-10-30T06:24:06Z</time>
      </trkpt>
      <trkpt lat="51.51095" lon="-0.10801">
        <ele>9.1</ele>
        <time>2012-10-30T06:24:09Z</time>
      </trkpt>
      <trkpt lat="51.51096" lon="-0.10785">
        <ele>9.4</ele>
        <time>2012-10-30T06:24:12Z</time>
      </trkpt>
      <trkpt lat="51.51096" lon="-0.10769">
        <ele>9.9</ele>
        <time>2012-10-30T06:24:15Z</time>
      </trkpt>
      <trkpt lat="51.51095" lon="-0.10753">
        <ele>10.5</ele>
        <time>2012-10-30T06:24:18Z</time>
      </trkpt>
      <trkpt lat="51.51093" lon="-0.10735">
        <ele>11</ele>
        <time>2012-10-30T06:24:21Z</time>
      </trkpt>
      <trkpt lat="51.51094" lon="-0.10718">
        <ele>11.5</ele>
        <time>2012-10-30T06:24:24Z</time>
      </trkpt>
      <trkpt lat="51.51095" lon="-0.10702">
        <ele>12.1</ele>
        <time>2012-10-30T06:24:27Z</time>
      </trkpt>
      <trkpt lat="51.51095" lon="-0.10685">
        <ele>12.5</ele>
        <time>2012-10-30T06:24:30Z</time>
      </trkpt>
      <trkpt lat="51.51097" lon="-0.1067">
        <ele>12.5</ele>
        <time>2012-10-30T06:24:33Z</time>
      </trkpt>
      <trkpt lat="51.51096" lon="-0.10654">
        <ele>12.6</ele>
        <time>2012-10-30T06:24:36Z</time>
      </trkpt>
      <trkpt lat="51.51097" lon="-0.10639">
        <ele>12.7</ele>
        <time>2012-10-30T06:24:39Z</time>
      </trkpt>
      <trkpt lat="51.51097" lon="-0.1062">
        <ele>12.8</ele>
        <time>2012-10-30T06:24:43Z</time>
      </trkpt>
      <trkpt lat="51.51096" lon="-0.10606">
        <ele>12.6</ele>
        <time>2012-10-30T06:24:47Z</time>
      </trkpt>
      <trkpt lat="51.51094" lon="-0.10588">
        <ele>12.2</ele>
        <time>2012-10-30T06:24:52Z</time>
      </trkpt>
      <trkpt lat="51.51093" lon="-0.10573">
        <ele>11.7</ele>
        <time>2012-10-30T06:24:56Z</time>
      </trkpt>
      <trkpt lat="51.51089" lon="-0.10559">
        <ele>11.3</ele>
        <time>2012-10-30T06:25:00Z</time>
      </trkpt>
      <trkpt lat="51.51086" lon="-0.10542">
        <ele>10.8</ele>
        <time>2012-10-30T06:25:06Z</time>
      </trkpt>
      <trkpt lat="51.51085" lon="-0.10527">
        <ele>10.4</ele>
        <time>2012-10-30T06:25:09Z</time>
      </trkpt>
      <trkpt lat="51.51083" lon="-0.10511">
        <ele>10.1</ele>
        <time>2012-10-30T06:25:12Z</time>
      </trkpt>
      <trkpt lat="51.51082" lon="-0.10496">
        <ele>9.8</ele>
        <time>2012-10-30T06:25:15Z</time>
      </trkpt>
      <trkpt lat="51.51082" lon="-0.10482">
        <ele>9.5</ele>
        <time>2012-10-30T06:25:18Z</time>
      </trkpt>
      <trkpt lat="51.51081" lon="-0.10465">
        <ele>9.3</ele>
        <time>2012-10-30T06:25:21Z</time>
      </trkpt>
      <trkpt lat="51.51068" lon="-0.10452">
        <ele>9</ele>
        <time>2012-10-30T06:25:28Z</time>
      </trkpt>
      <trkpt lat="51.51071" lon="-0.10436">
        <ele>8.9</ele>
        <time>2012-10-30T06:25:32Z</time>
      </trkpt>
      <trkpt lat="51.51077" lon="-0.10423">
        <ele>8.8</ele>
        <time>2012-10-30T06:25:34Z</time>
      </trkpt>
      <trkpt lat="51.51081" lon="-0.10404">
        <ele>8.7</ele>
        <time>2012-10-30T06:25:37Z</time>
      </trkpt>
      <trkpt lat="51.51082" lon="-0.10389">
        <ele>8.6</ele>
        <time>2012-10-30T06:25:40Z</time>
      </trkpt>
      <trkpt lat="51.51082" lon="-0.10373">
        <ele>8.7</ele>
        <time>2012-10-30T06:25:43Z</time>
      </trkpt>
      <trkpt lat="51.51082" lon="-0.10354">
        <ele>8.8</ele>
        <time>2012-10-30T06:25:47Z</time>
      </trkpt>
      <trkpt lat="51.51081" lon="-0.10339">
        <ele>8.9</ele>
        <time>2012-10-30T06:25:50Z</time>
      </trkpt>
      <trkpt lat="51.51083" lon="-0.10322">
        <ele>9</ele>
        <time>2012-10-30T06:25:55Z</time>
      </trkpt>
      <trkpt lat="51.51085" lon="-0.10301">
        <ele>9.1</ele>
        <time>2012-10-30T06:25:59Z</time>
      </trkpt>
      <trkpt lat="51.51087" lon="-0.10282">
        <ele>9.4</ele>
        <time>2012-10-30T06:26:02Z</time>
      </trkpt>
      <trkpt lat="51.51088" lon="-0.10266">
        <ele>9.6</ele>
        <time>2012-10-30T06:26:05Z</time>
      </trkpt>
      <trkpt lat="51.51089" lon="-0.1025">
        <ele>10</ele>
        <time>2012-10-30T06:26:08Z</time>
      </trkpt>
      <trkpt lat="51.51088" lon="-0.10234">
        <ele>10.4</ele>
        <time>2012-10-30T06:26:11Z</time>
      </trkpt>
      <trkpt lat="51.51087" lon="-0.10218">
        <ele>10.7</ele>
        <time>2012-10-30T06:26:14Z</time>
      </trkpt>
      <trkpt lat="51.51086" lon="-0.10203">
        <ele>11.1</ele>
        <time>2012-10-30T06:26:17Z</time>
      </trkpt>
      <trkpt lat="51.51086" lon="-0.10189">
        <ele>11.4</ele>
        <time>2012-10-30T06:26:20Z</time>
      </trkpt>
      <trkpt lat="51.51086" lon="-0.10173">
        <ele>11.6</ele>
        <time>2012-10-30T06:26:23Z</time>
      </trkpt>
      <trkpt lat="51.51086" lon="-0.10159">
        <ele>11.9</ele>
        <time>2012-10-30T06:26:26Z</time>
      </trkpt>
      <trkpt lat="51.51086" lon="-0.10144">
        <ele>12.2</ele>
        <time>2012-10-30T06:26:29Z</time>
      </trkpt>
      <trkpt lat="51.51085" lon="-0.10126">
        <ele>12.5</ele>
        <time>2012-10-30T06:26:33Z</time>
      </trkpt>
      <trkpt lat="51.51084" lon="-0.10107">
        <ele>12.6</ele>
        <time>2012-10-30T06:26:37Z</time>
      </trkpt>
      <trkpt lat="51.51082" lon="-0.10091">
        <ele>12.8</ele>
        <time>2012-10-30T06:26:41Z</time>
      </trkpt>
      <trkpt lat="51.5108" lon="-0.10076">
        <ele>13</ele>
        <time>2012-10-30T06:26:45Z</time>
      </trkpt>
      <trkpt lat="51.5108" lon="-0.10059">
        <ele>13.2</ele>
        <time>2012-10-30T06:26:49Z</time>
      </trkpt>
      <trkpt lat="51.51079" lon="-0.10042">
        <ele>13.4</ele>
        <time>2012-10-30T06:26:53Z</time>
      </trkpt>
      <trkpt lat="51.51079" lon="-0.10024">
        <ele>13.5</ele>
        <time>2012-10-30T06:26:57Z</time>
      </trkpt>
      <trkpt lat="51.5108" lon="-0.10006">
        <ele>13.6</ele>
        <time>2012-10-30T06:27:02Z</time>
      </trkpt>
      <trkpt lat="51.51081" lon="-0.09991">
        <ele>13.7</ele>
        <time>2012-10-30T06:27:06Z</time>
      </trkpt>
      <trkpt lat="51.51081" lon="-0.09973">
        <ele>13.8</ele>
        <time>2012-10-30T06:27:11Z</time>
      </trkpt>
      <trkpt lat="51.5108" lon="-0.09954">
        <ele>13.9</ele>
        <time>2012-10-30T06:27:15Z</time>
      </trkpt>
      <trkpt lat="51.5108" lon="-0.09939">
        <ele>14</ele>
        <time>2012-10-30T06:27:18Z</time>
      </trkpt>
      <trkpt lat="51.51079" lon="-0.0992">
        <ele>14</ele>
        <time>2012-10-30T06:27:22Z</time>
      </trkpt>
      <trkpt lat="51.51076" lon="-0.09906">
        <ele>14</ele>
        <time>2012-10-30T06:27:25Z</time>
      </trkpt>
      <trkpt lat="51.51077" lon="-0.0989">
        <ele>14</ele>
        <time>2012-10-30T06:27:28Z</time>
      </trkpt>
      <trkpt lat="51.51078" lon="-0.09875">
        <ele>14</ele>
        <time>2012-10-30T06:27:31Z</time>
      </trkpt>
      <trkpt lat="51.51079" lon="-0.0986">
        <ele>14.1</ele>
        <time>2012-10-30T06:27:34Z</time>
      </trkpt>
      <trkpt lat="51.51079" lon="-0.09845">
        <ele>14.2</ele>
        <time>2012-10-30T06:27:37Z</time>
      </trkpt>
      <trkpt lat="51.51079" lon="-0.09826">
        <ele>14.3</ele>
        <time>2012-10-30T06:27:41Z</time>
      </trkpt>
      <trkpt lat="51.51077" lon="-0.09808">
        <ele>14.4</ele>
        <time>2012-10-30T06:27:45Z</time>
      </trkpt>
      <trkpt lat="51.51076" lon="-0.09791">
        <ele>14.5</ele>
        <time>2012-10-30T06:27:49Z</time>
      </trkpt>
      <trkpt lat="51.51074" lon="-0.09775">
        <ele>14.6</ele>
        <time>2012-10-30T06:27:53Z</time>
      </trkpt>
      <trkpt lat="51.51072" lon="-0.09758">
        <ele>14.8</ele>
        <time>2012-10-30T06:27:57Z</time>
      </trkpt>
      <trkpt lat="51.5107" lon="-0.09742">
        <ele>15</ele>
        <time>2012-10-30T06:28:01Z</time>
      </trkpt>
      <trkpt lat="51.51069" lon="-0.09727">
        <ele>15.2</ele>
        <time>2012-10-30T06:28:04Z</time>
      </trkpt>
      <trkpt lat="51.51064" lon="-0.09709">
        <ele>15.4</ele>
        <time>2012-10-30T06:28:08Z</time>
      </trkpt>
      <trkpt lat="51.51059" lon="-0.09694">
        <ele>15.5</ele>
        <time>2012-10-30T06:28:12Z</time>
      </trkpt>
      <trkpt lat="51.51057" lon="-0.09679">
        <ele>15.6</ele>
        <time>2012-10-30T06:28:17Z</time>
      </trkpt>
      <trkpt lat="51.51051" lon="-0.09666">
        <ele>15.7</ele>
        <time>2012-10-30T06:28:23Z</time>
      </trkpt>
      <trkpt lat="51.51053" lon="-0.09682">
        <ele>15.8</ele>
        <time>2012-10-30T06:28:28Z</time>
      </trkpt>
      <trkpt lat="51.51058" lon="-0.09695">
        <ele>15.9</ele>
        <time>2012-10-30T06:28:32Z</time>
      </trkpt>
      <trkpt lat="51.51069" lon="-0.09693">
        <ele>16</ele>
        <time>2012-10-30T06:28:36Z</time>
      </trkpt>
      <trkpt lat="51.51069" lon="-0.09678">
        <ele>16</ele>
        <time>2012-10-30T06:28:48Z</time>
      </trkpt>
      <trkpt lat="51.51075" lon="-0.09664">
        <ele>16</ele>
        <time>2012-10-30T06:28:54Z</time>
      </trkpt>
      <trkpt lat="51.51078" lon="-0.09646">
        <ele>16</ele>
        <time>2012-10-30T06:28:58Z</time>
      </trkpt>
      <trkpt lat="51.5108" lon="-0.09632">
        <ele>16</ele>
        <time>2012-10-30T06:29:01Z</time>
      </trkpt>
      <trkpt lat="51.51083" lon="-0.09612">
        <ele>16</ele>
        <time>2012-10-30T06:29:04Z</time>
      </trkpt>
      <trkpt lat="51.51086" lon="-0.09594">
        <ele>16</ele>
        <time>2012-10-30T06:29:07Z</time>
      </trkpt>
      <trkpt lat="51.51084" lon="-0.09579">
        <ele>16</ele>
        <time>2012-10-30T06:29:11Z</time>
      </trkpt>
      <trkpt lat="51.51085" lon="-0.09564">
        <ele>16</ele>
        <time>2012-10-30T06:29:16Z</time>
      </trkpt>
      <trkpt lat="51.51093" lon="-0.09552">
        <ele>15.1</ele>
        <time>2012-10-30T06:29:21Z</time>
      </trkpt>
      <trkpt lat="51.51083" lon="-0.09544">
        <ele>14.2</ele>
        <time>2012-10-30T06:29:32Z</time>
      </trkpt>
      <trkpt lat="51.51072" lon="-0.09546">
        <ele>13.3</ele>
        <time>2012-10-30T06:29:35Z</time>
      </trkpt>
      <trkpt lat="51.51062" lon="-0.09549">
        <ele>12.4</ele>
        <time>2012-10-30T06:29:38Z</time>
      </trkpt>
      <trkpt lat="51.51049" lon="-0.09551">
        <ele>11.8</ele>
        <time>2012-10-30T06:29:41Z</time>
      </trkpt>
      <trkpt lat="51.51039" lon="-0.09553">
        <ele>11.3</ele>
        <time>2012-10-30T06:29:43Z</time>
      </trkpt>
      <trkpt lat="51.5103" lon="-0.09553">
        <ele>10.7</ele>
        <time>2012-10-30T06:29:45Z</time>
      </trkpt>
      <trkpt lat="51.51021" lon="-0.09548">
        <ele>10.2</ele>
        <time>2012-10-30T06:29:47Z</time>
      </trkpt>
      <trkpt lat="51.51014" lon="-0.09536">
        <ele>9.6</ele>
        <time>2012-10-30T06:29:49Z</time>
      </trkpt>
      <trkpt lat="51.51009" lon="-0.09521">
        <ele>9.2</ele>
        <time>2012-10-30T06:29:51Z</time>
      </trkpt>
      <trkpt lat="51.51005" lon="-0.09506">
        <ele>8.7</ele>
        <time>2012-10-30T06:29:53Z</time>
      </trkpt>
      <trkpt lat="51.51002" lon="-0.09487">
        <ele>9.2</ele>
        <time>2012-10-30T06:29:56Z</time>
      </trkpt>
      <trkpt lat="51.51001" lon="-0.09472">
        <ele>9.6</ele>
        <time>2012-10-30T06:29:59Z</time>
      </trkpt>
      <trkpt lat="51.50994" lon="-0.09459">
        <ele>10.1</ele>
        <time>2012-10-30T06:30:03Z</time>
      </trkpt>
      <trkpt lat="51.50989" lon="-0.09446">
        <ele>10.5</ele>
        <time>2012-10-30T06:30:06Z</time>
      </trkpt>
      <trkpt lat="51.50982" lon="-0.09431">
        <ele>9.9</ele>
        <time>2012-10-30T06:30:09Z</time>
      </trkpt>
      <trkpt lat="51.50977" lon="-0.09415">
        <ele>10</ele>
        <time>2012-10-30T06:30:13Z</time>
      </trkpt>
      <trkpt lat="51.50978" lon="-0.09397">
        <ele>10.1</ele>
        <time>2012-10-30T06:30:16Z</time>
      </trkpt>
      <trkpt lat="51.50976" lon="-0.09383">
        <ele>10.2</ele>
        <time>2012-10-30T06:30:23Z</time>
      </trkpt>
      <trkpt lat="51.50968" lon="-0.09377">
        <ele>10.3</ele>
        <time>2012-10-30T06:30:28Z</time>
      </trkpt>
      <trkpt lat="51.50959" lon="-0.09373">
        <ele>10.3</ele>
        <time>2012-10-30T06:30:47Z</time>
      </trkpt>
      <trkpt lat="51.50965" lon="-0.09388">
        <ele>10.2</ele>
        <time>2012-10-30T06:30:52Z</time>
      </trkpt>
      <trkpt lat="51.50973" lon="-0.09403">
        <ele>10.2</ele>
        <time>2012-10-30T06:30:55Z</time>
      </trkpt>
      <trkpt lat="51.50979" lon="-0.09419">
        <ele>10.2</ele>
        <time>2012-10-30T06:30:58Z</time>
      </trkpt>
      <trkpt lat="51.50984" lon="-0.09436">
        <ele>10.2</ele>
        <time>2012-10-30T06:31:01Z</time>
      </trkpt>
      <trkpt lat="51.50989" lon="-0.09449">
        <ele>10.2</ele>
        <time>2012-10-30T06:31:04Z</time>
      </trkpt>
      <trkpt lat="51.50996" lon="-0.09461">
        <ele>10.9</ele>
        <time>2012-10-30T06:31:09Z</time>
      </trkpt>
      <trkpt lat="51.51005" lon="-0.09451">
        <ele>11.5</ele>
        <time>2012-10-30T06:31:21Z</time>
      </trkpt>
      <trkpt lat="51.51012" lon="-0.0944">
        <ele>12.2</ele>
        <time>2012-10-30T06:31:24Z</time>
      </trkpt>
      <trkpt lat="51.51022" lon="-0.09431">
        <ele>12.8</ele>
        <time>2012-10-30T06:31:27Z</time>
      </trkpt>
      <trkpt lat="51.51031" lon="-0.09426">
        <ele>13.5</ele>
        <time>2012-10-30T06:31:31Z</time>
      </trkpt>
      <trkpt lat="51.51041" lon="-0.09427">
        <ele>14.4</ele>
        <time>2012-10-30T06:31:35Z</time>
      </trkpt>
      <trkpt lat="51.51051" lon="-0.0942">
        <ele>15.4</ele>
        <time>2012-10-30T06:31:38Z</time>
      </trkpt>
      <trkpt lat="51.51061" lon="-0.09413">
        <ele>16.3</ele>
        <time>2012-10-30T06:31:41Z</time>
      </trkpt>
      <trkpt lat="51.51066" lon="-0.09395">
        <ele>17.2</ele>
        <time>2012-10-30T06:31:44Z</time>
      </trkpt>
      <trkpt lat="51.51072" lon="-0.09375">
        <ele>18.1</ele>
        <time>2012-10-30T06:31:47Z</time>
      </trkpt>
      <trkpt lat="51.51074" lon="-0.09358">
        <ele>19</ele>
        <time>2012-10-30T06:31:50Z</time>
      </trkpt>
      <trkpt lat="51.51075" lon="-0.09341">
        <ele>19.9</ele>
        <time>2012-10-30T06:31:53Z</time>
      </trkpt>
      <trkpt lat="51.51073" lon="-0.09325">
        <ele>19.5</ele>
        <time>2012-10-30T06:31:57Z</time>
      </trkpt>
      <trkpt lat="51.51073" lon="-0.09309">
        <ele>19</ele>
        <time>2012-10-30T06:32:02Z</time>
      </trkpt>
      <trkpt lat="51.51062" lon="-0.09309">
        <ele>18.5</ele>
        <time>2012-10-30T06:32:09Z</time>
      </trkpt>
      <trkpt lat="51.51053" lon="-0.09319">
        <ele>18.1</ele>
        <time>2012-10-30T06:32:13Z</time>
      </trkpt>
      <trkpt lat="51.51044" lon="-0.0933">
        <ele>17.4</ele>
        <time>2012-10-30T06:32:17Z</time>
      </trkpt>
      <trkpt lat="51.51035" lon="-0.09338">
        <ele>16.6</ele>
        <time>2012-10-30T06:32:21Z</time>
      </trkpt>
      <trkpt lat="51.51026" lon="-0.09346">
        <ele>15.9</ele>
        <time>2012-10-30T06:32:25Z</time>
      </trkpt>
      <trkpt lat="51.51016" lon="-0.09351">
        <ele>15.2</ele>
        <time>2012-10-30T06:32:29Z</time>
      </trkpt>
      <trkpt lat="51.51005" lon="-0.09354">
        <ele>14.5</ele>
        <time>2012-10-30T06:32:33Z</time>
      </trkpt>
      <trkpt lat="51.50994" lon="-0.09351">
        <ele>14.1</ele>
        <time>2012-10-30T06:32:38Z</time>
      </trkpt>
      <trkpt lat="51.50987" lon="-0.09339">
        <ele>13.7</ele>
        <time>2012-10-30T06:32:43Z</time>
      </trkpt>
      <trkpt lat="51.50986" lon="-0.09323">
        <ele>14.1</ele>
        <time>2012-10-30T06:32:46Z</time>
      </trkpt>
      <trkpt lat="51.50983" lon="-0.09308">
        <ele>14.5</ele>
        <time>2012-10-30T06:32:49Z</time>
      </trkpt>
      <trkpt lat="51.50978" lon="-0.09295">
        <ele>13.8</ele>
        <time>2012-10-30T06:32:52Z</time>
      </trkpt>
      <trkpt lat="51.5097" lon="-0.09281">
        <ele>13.2</ele>
        <time>2012-10-30T06:32:56Z</time>
      </trkpt>
      <trkpt lat="51.50967" lon="-0.09265">
        <ele>13.5</ele>
        <time>2012-10-30T06:33:00Z</time>
      </trkpt>
      <trkpt lat="51.50973" lon="-0.09254">
        <ele>13.5</ele>
        <time>2012-10-30T06:33:06Z</time>
      </trkpt>
      <trkpt lat="51.50964" lon="-0.09246">
        <ele>13.5</ele>
        <time>2012-10-30T06:33:22Z</time>
      </trkpt>
      <trkpt lat="51.50957" lon="-0.09257">
        <ele>13.5</ele>
        <time>2012-10-30T06:33:26Z</time>
      </trkpt>
      <trkpt lat="51.50959" lon="-0.09271">
        <ele>13.5</ele>
        <time>2012-10-30T06:33:29Z</time>
      </trkpt>
      <trkpt lat="51.50963" lon="-0.09286">
        <ele>13.2</ele>
        <time>2012-10-30T06:33:32Z</time>
      </trkpt>
      <trkpt lat="51.50968" lon="-0.09303">
        <ele>12.8</ele>
        <time>2012-10-30T06:33:36Z</time>
      </trkpt>
      <trkpt lat="51.5097" lon="-0.09317">
        <ele>11.8</ele>
        <time>2012-10-30T06:33:39Z</time>
      </trkpt>
      <trkpt lat="51.50974" lon="-0.09333">
        <ele>10.8</ele>
        <time>2012-10-30T06:33:43Z</time>
      </trkpt>
      <trkpt lat="51.50964" lon="-0.09326">
        <ele>11.8</ele>
        <time>2012-10-30T06:34:11Z</time>
      </trkpt>
      <trkpt lat="51.50964" lon="-0.0931">
        <ele>12.8</ele>
        <time>2012-10-30T06:34:14Z</time>
      </trkpt>
      <trkpt lat="51.50964" lon="-0.09293">
        <ele>12.5</ele>
        <time>2012-10-30T06:34:19Z</time>
      </trkpt>
      <trkpt lat="51.5096" lon="-0.09277">
        <ele>13.6</ele>
        <time>2012-10-30T06:34:24Z</time>
      </trkpt>
      <trkpt lat="51.50958" lon="-0.09262">
        <ele>14.6</ele>
        <time>2012-10-30T06:34:28Z</time>
      </trkpt>
      <trkpt lat="51.50964" lon="-0.09253">
        <ele>15.6</ele>
        <time>2012-10-30T06:34:32Z</time>
      </trkpt>
      <trkpt lat="51.50972" lon="-0.09262">
        <ele>17.3</ele>
        <time>2012-10-30T06:34:37Z</time>
      </trkpt>
      <trkpt lat="51.50995" lon="-0.09301">
        <ele>18.9</ele>
        <time>2012-10-30T06:35:03Z</time>
      </trkpt>
      <trkpt lat="51.51042" lon="-0.0911">
        <ele>20.5</ele>
        <time>2012-10-30T06:35:07Z</time>
      </trkpt>
      <trkpt lat="51.51048" lon="-0.09094">
        <ele>22.8</ele>
        <time>2012-10-30T06:35:38Z</time>
      </trkpt>
      <trkpt lat="51.51044" lon="-0.09047">
        <ele>25.1</ele>
        <time>2012-10-30T06:35:40Z</time>
      </trkpt>
      <trkpt lat="51.51041" lon="-0.09033">
        <ele>26.4</ele>
        <time>2012-10-30T06:35:41Z</time>
      </trkpt>
      <trkpt lat="51.51034" lon="-0.09017">
        <ele>27.5</ele>
        <time>2012-10-30T06:35:43Z</time>
      </trkpt>
      <trkpt lat="51.51028" lon="-0.09003">
        <ele>28.9</ele>
        <time>2012-10-30T06:35:45Z</time>
      </trkpt>
      <trkpt lat="51.51021" lon="-0.08987">
        <ele>29.2</ele>
        <time>2012-10-30T06:35:48Z</time>
      </trkpt>
      <trkpt lat="51.51017" lon="-0.08973">
        <ele>29.6</ele>
        <time>2012-10-30T06:35:51Z</time>
      </trkpt>
      <trkpt lat="51.51013" lon="-0.08955">
        <ele>30.1</ele>
        <time>2012-10-30T06:35:55Z</time>
      </trkpt>
      <trkpt lat="51.51009" lon="-0.08942">
        <ele>29.9</ele>
        <time>2012-10-30T06:35:58Z</time>
      </trkpt>
      <trkpt lat="51.51003" lon="-0.08927">
        <ele>29.7</ele>
        <time>2012-10-30T06:36:01Z</time>
      </trkpt>
      <trkpt lat="51.50997" lon="-0.08913">
        <ele>28.5</ele>
        <time>2012-10-30T06:36:04Z</time>
      </trkpt>
      <trkpt lat="51.50992" lon="-0.08898">
        <ele>27.4</ele>
        <time>2012-10-30T06:36:08Z</time>
      </trkpt>
      <trkpt lat="51.50983" lon="-0.08898">
        <ele>26.2</ele>
        <time>2012-10-30T06:36:14Z</time>
      </trkpt>
      <trkpt lat="51.50975" lon="-0.08906">
        <ele>25</ele>
        <time>2012-10-30T06:36:19Z</time>
      </trkpt>
      <trkpt lat="51.50968" lon="-0.08918">
        <ele>24</ele>
        <time>2012-10-30T06:36:24Z</time>
      </trkpt>
      <trkpt lat="51.5096" lon="-0.0893">
        <ele>23</ele>
        <time>2012-10-30T06:36:30Z</time>
      </trkpt>
      <trkpt lat="51.50951" lon="-0.08931">
        <ele>22</ele>
        <time>2012-10-30T06:36:33Z</time>
      </trkpt>
      <trkpt lat="51.50939" lon="-0.08935">
        <ele>21</ele>
        <time>2012-10-30T06:36:36Z</time>
      </trkpt>
      <trkpt lat="51.50927" lon="-0.08941">
        <ele>19.9</ele>
        <time>2012-10-30T06:36:39Z</time>
      </trkpt>
      <trkpt lat="51.50917" lon="-0.08933">
        <ele>18.8</ele>
        <time>2012-10-30T06:36:43Z</time>
      </trkpt>
      <trkpt lat="51.50913" lon="-0.08918">
        <ele>17.7</ele>
        <time>2012-10-30T06:36:47Z</time>
      </trkpt>
      <trkpt lat="51.50911" lon="-0.08897">
        <ele>17.6</ele>
        <time>2012-10-30T06:36:50Z</time>
      </trkpt>
      <trkpt lat="51.50907" lon="-0.08878">
        <ele>17.5</ele>
        <time>2012-10-30T06:36:53Z</time>
      </trkpt>
      <trkpt lat="51.50904" lon="-0.08861">
        <ele>17.7</ele>
        <time>2012-10-30T06:36:56Z</time>
      </trkpt>
      <trkpt lat="51.509" lon="-0.08845">
        <ele>17.9</ele>
        <time>2012-10-30T06:36:59Z</time>
      </trkpt>
      <trkpt lat="51.50898" lon="-0.08828">
        <ele>18.1</ele>
        <time>2012-10-30T06:37:02Z</time>
      </trkpt>
      <trkpt lat="51.50898" lon="-0.08811">
        <ele>18.3</ele>
        <time>2012-10-30T06:37:05Z</time>
      </trkpt>
      <trkpt lat="51.50895" lon="-0.08796">
        <ele>18.5</ele>
        <time>2012-10-30T06:37:08Z</time>
      </trkpt>
      <trkpt lat="51.50893" lon="-0.0878">
        <ele>18.6</ele>
        <time>2012-10-30T06:37:11Z</time>
      </trkpt>
      <trkpt lat="51.5089" lon="-0.08765">
        <ele>17.4</ele>
        <time>2012-10-30T06:37:14Z</time>
      </trkpt>
      <trkpt lat="51.50885" lon="-0.0875">
        <ele>16.1</ele>
        <time>2012-10-30T06:37:19Z</time>
      </trkpt>
      <trkpt lat="51.5088" lon="-0.08736">
        <ele>14.8</ele>
        <time>2012-10-30T06:37:24Z</time>
      </trkpt>
      <trkpt lat="51.50883" lon="-0.08718">
        <ele>13.5</ele>
        <time>2012-10-30T06:37:28Z</time>
      </trkpt>
      <trkpt lat="51.50884" lon="-0.08703">
        <ele>12.3</ele>
        <time>2012-10-30T06:37:31Z</time>
      </trkpt>
      <trkpt lat="51.50877" lon="-0.08692">
        <ele>10.7</ele>
        <time>2012-10-30T06:37:35Z</time>
      </trkpt>
      <trkpt lat="51.50872" lon="-0.08676">
        <ele>9.2</ele>
        <time>2012-10-30T06:37:40Z</time>
      </trkpt>
      <trkpt lat="51.50872" lon="-0.08658">
        <ele>7.6</ele>
        <time>2012-10-30T06:37:44Z</time>
      </trkpt>
      <trkpt lat="51.50871" lon="-0.0864">
        <ele>6.1</ele>
        <time>2012-10-30T06:37:48Z</time>
      </trkpt>
      <trkpt lat="51.50869" lon="-0.08626">
        <ele>4.5</ele>
        <time>2012-10-30T06:37:51Z</time>
      </trkpt>
      <trkpt lat="51.50867" lon="-0.08609">
        <ele>3</ele>
        <time>2012-10-30T06:37:55Z</time>
      </trkpt>
      <trkpt lat="51.50864" lon="-0.08593">
        <ele>3</ele>
        <time>2012-10-30T06:37:59Z</time>
      </trkpt>
      <trkpt lat="51.50861" lon="-0.08578">
        <ele>3</ele>
        <time>2012-10-30T06:38:03Z</time>
      </trkpt>
      <trkpt lat="51.5086" lon="-0.0856">
        <ele>3</ele>
        <time>2012-10-30T06:38:07Z</time>
      </trkpt>
      <trkpt lat="51.50857" lon="-0.08544">
        <ele>3</ele>
        <time>2012-10-30T06:38:11Z</time>
      </trkpt>
      <trkpt lat="51.50856" lon="-0.08528">
        <ele>3</ele>
        <time>2012-10-30T06:38:15Z</time>
      </trkpt>
      <trkpt lat="51.50861" lon="-0.08516">
        <ele>3</ele>
        <time>2012-10-30T06:38:22Z</time>
      </trkpt>
      <trkpt lat="51.50859" lon="-0.085">
        <ele>3</ele>
        <time>2012-10-30T06:38:26Z</time>
      </trkpt>
      <trkpt lat="51.50853" lon="-0.08487">
        <ele>3</ele>
        <time>2012-10-30T06:38:30Z</time>
      </trkpt>
      <trkpt lat="51.50852" lon="-0.08469">
        <ele>3</ele>
        <time>2012-10-30T06:38:33Z</time>
      </trkpt>
      <trkpt lat="51.50851" lon="-0.08451">
        <ele>3</ele>
        <time>2012-10-30T06:38:36Z</time>
      </trkpt>
      <trkpt lat="51.50851" lon="-0.08435">
        <ele>3</ele>
        <time>2012-10-30T06:38:39Z</time>
      </trkpt>
      <trkpt lat="51.50851" lon="-0.08418">
        <ele>3</ele>
        <time>2012-10-30T06:38:43Z</time>
      </trkpt>
      <trkpt lat="51.50851" lon="-0.084">
        <ele>3</ele>
        <time>2012-10-30T06:38:47Z</time>
      </trkpt>
      <trkpt lat="51.50852" lon="-0.08384">
        <ele>3</ele>
        <time>2012-10-30T06:38:51Z</time>
      </trkpt>
      <trkpt lat="51.50857" lon="-0.0837">
        <ele>3</ele>
        <time>2012-10-30T06:38:55Z</time>
      </trkpt>
      <trkpt lat="51.50864" lon="-0.08359">
        <ele>3.2</ele>
        <time>2012-10-30T06:38:59Z</time>
      </trkpt>
      <trkpt lat="51.50859" lon="-0.08343">
        <ele>3.4</ele>
        <time>2012-10-30T06:39:04Z</time>
      </trkpt>
      <trkpt lat="51.50856" lon="-0.08328">
        <ele>3.5</ele>
        <time>2012-10-30T06:39:07Z</time>
      </trkpt>
      <trkpt lat="51.50853" lon="-0.08313">
        <ele>3.7</ele>
        <time>2012-10-30T06:39:10Z</time>
      </trkpt>
      <trkpt lat="51.5085" lon="-0.08297">
        <ele>3.9</ele>
        <time>2012-10-30T06:39:13Z</time>
      </trkpt>
      <trkpt lat="51.50847" lon="-0.0828">
        <ele>4.3</ele>
        <time>2012-10-30T06:39:16Z</time>
      </trkpt>
      <trkpt lat="51.50845" lon="-0.08266">
        <ele>4.6</ele>
        <time>2012-10-30T06:39:19Z</time>
      </trkpt>
      <trkpt lat="51.50841" lon="-0.08251">
        <ele>5</ele>
        <time>2012-10-30T06:39:23Z</time>
      </trkpt>
      <trkpt lat="51.50838" lon="-0.08234">
        <ele>5.4</ele>
        <time>2012-10-30T06:39:27Z</time>
      </trkpt>
      <trkpt lat="51.50836" lon="-0.08217">
        <ele>5.7</ele>
        <time>2012-10-30T06:39:31Z</time>
      </trkpt>
      <trkpt lat="51.50834" lon="-0.08203">
        <ele>5.9</ele>
        <time>2012-10-30T06:39:35Z</time>
      </trkpt>
      <trkpt lat="51.50832" lon="-0.08187">
        <ele>5.9</ele>
        <time>2012-10-30T06:39:39Z</time>
      </trkpt>
      <trkpt lat="51.50829" lon="-0.08172">
        <ele>5.9</ele>
        <time>2012-10-30T06:39:43Z</time>
      </trkpt>
      <trkpt lat="51.50833" lon="-0.08187">
        <ele>5.9</ele>
        <time>2012-10-30T06:39:54Z</time>
      </trkpt>
      <trkpt lat="51.50835" lon="-0.08204">
        <ele>5.9</ele>
        <time>2012-10-30T06:39:58Z</time>
      </trkpt>
      <trkpt lat="51.50839" lon="-0.08218">
        <ele>5.7</ele>
        <time>2012-10-30T06:40:02Z</time>
      </trkpt>
      <trkpt lat="51.50841" lon="-0.08235">
        <ele>5.4</ele>
        <time>2012-10-30T06:40:08Z</time>
      </trkpt>
      <trkpt lat="51.50842" lon="-0.08254">
        <ele>5</ele>
        <time>2012-10-30T06:40:12Z</time>
      </trkpt>
      <trkpt lat="51.50843" lon="-0.0827">
        <ele>4.6</ele>
        <time>2012-10-30T06:40:15Z</time>
      </trkpt>
      <trkpt lat="51.50845" lon="-0.08285">
        <ele>4.3</ele>
        <time>2012-10-30T06:40:18Z</time>
      </trkpt>
      <trkpt lat="51.50847" lon="-0.08299">
        <ele>3.9</ele>
        <time>2012-10-30T06:40:21Z</time>
      </trkpt>
      <trkpt lat="51.50847" lon="-0.08315">
        <ele>3.7</ele>
        <time>2012-10-30T06:40:25Z</time>
      </trkpt>
      <trkpt lat="51.50848" lon="-0.08331">
        <ele>3.5</ele>
        <time>2012-10-30T06:40:29Z</time>
      </trkpt>
      <trkpt lat="51.50848" lon="-0.08349">
        <ele>3.4</ele>
        <time>2012-10-30T06:40:32Z</time>
      </trkpt>
      <trkpt lat="51.5085" lon="-0.08364">
        <ele>3.2</ele>
        <time>2012-10-30T06:40:35Z</time>
      </trkpt>
      <trkpt lat="51.50842" lon="-0.08371">
        <ele>3</ele>
        <time>2012-10-30T06:40:39Z</time>
      </trkpt>
      <trkpt lat="51.5084" lon="-0.08386">
        <ele>3</ele>
        <time>2012-10-30T06:40:42Z</time>
      </trkpt>
      <trkpt lat="51.50839" lon="-0.08401">
        <ele>3</ele>
        <time>2012-10-30T06:40:45Z</time>
      </trkpt>
      <trkpt lat="51.50841" lon="-0.08418">
        <ele>3</ele>
        <time>2012-10-30T06:40:49Z</time>
      </trkpt>
      <trkpt lat="51.50844" lon="-0.08434">
        <ele>3</ele>
        <time>2012-10-30T06:40:53Z</time>
      </trkpt>
      <trkpt lat="51.50846" lon="-0.08449">
        <ele>3</ele>
        <time>2012-10-30T06:40:56Z</time>
      </trkpt>
      <trkpt lat="51.50847" lon="-0.08467">
        <ele>3</ele>
        <time>2012-10-30T06:40:59Z</time>
      </trkpt>
      <trkpt lat="51.5085" lon="-0.08483">
        <ele>3</ele>
        <time>2012-10-30T06:41:02Z</time>
      </trkpt>
      <trkpt lat="51.50856" lon="-0.08496">
        <ele>3</ele>
        <time>2012-10-30T06:41:06Z</time>
      </trkpt>
      <trkpt lat="51.50858" lon="-0.08511">
        <ele>3</ele>
        <time>2012-10-30T06:41:09Z</time>
      </trkpt>
      <trkpt lat="51.50849" lon="-0.08516">
        <ele>3</ele>
        <time>2012-10-30T06:41:12Z</time>
      </trkpt>
      <trkpt lat="51.50849" lon="-0.08532">
        <ele>3</ele>
        <time>2012-10-30T06:41:17Z</time>
      </trkpt>
      <trkpt lat="51.50856" lon="-0.08546">
        <ele>3</ele>
        <time>2012-10-30T06:41:21Z</time>
      </trkpt>
      <trkpt lat="51.50856" lon="-0.08564">
        <ele>3</ele>
        <time>2012-10-30T06:41:25Z</time>
      </trkpt>
      <trkpt lat="51.50854" lon="-0.08579">
        <ele>3</ele>
        <time>2012-10-30T06:41:29Z</time>
      </trkpt>
      <trkpt lat="51.50857" lon="-0.08596">
        <ele>3</ele>
        <time>2012-10-30T06:41:33Z</time>
      </trkpt>
      <trkpt lat="51.5086" lon="-0.08611">
        <ele>3</ele>
        <time>2012-10-30T06:41:36Z</time>
      </trkpt>
      <trkpt lat="51.50862" lon="-0.08627">
        <ele>4.5</ele>
        <time>2012-10-30T06:41:39Z</time>
      </trkpt>
      <trkpt lat="51.50865" lon="-0.08645">
        <ele>6.1</ele>
        <time>2012-10-30T06:41:43Z</time>
      </trkpt>
      <trkpt lat="51.50867" lon="-0.08659">
        <ele>7.6</ele>
        <time>2012-10-30T06:41:46Z</time>
      </trkpt>
      <trkpt lat="51.5087" lon="-0.08677">
        <ele>9.2</ele>
        <time>2012-10-30T06:41:50Z</time>
      </trkpt>
      <trkpt lat="51.50874" lon="-0.08695">
        <ele>10.7</ele>
        <time>2012-10-30T06:41:54Z</time>
      </trkpt>
      <trkpt lat="51.50883" lon="-0.08701">
        <ele>12</ele>
        <time>2012-10-30T06:42:02Z</time>
      </trkpt>
      <trkpt lat="51.50885" lon="-0.08716">
        <ele>13.3</ele>
        <time>2012-10-30T06:42:05Z</time>
      </trkpt>
      <trkpt lat="51.50885" lon="-0.08732">
        <ele>14.5</ele>
        <time>2012-10-30T06:42:08Z</time>
      </trkpt>
      <trkpt lat="51.50888" lon="-0.08749">
        <ele>15.8</ele>
        <time>2012-10-30T06:42:11Z</time>
      </trkpt>
      <trkpt lat="51.50891" lon="-0.08768">
        <ele>17.1</ele>
        <time>2012-10-30T06:42:15Z</time>
      </trkpt>
      <trkpt lat="51.5089" lon="-0.08787">
        <ele>18.5</ele>
        <time>2012-10-30T06:42:18Z</time>
      </trkpt>
      <trkpt lat="51.50892" lon="-0.08804">
        <ele>18.3</ele>
        <time>2012-10-30T06:42:21Z</time>
      </trkpt>
      <trkpt lat="51.50892" lon="-0.08821">
        <ele>18.1</ele>
        <time>2012-10-30T06:42:24Z</time>
      </trkpt>
      <trkpt lat="51.50892" lon="-0.08838">
        <ele>17.9</ele>
        <time>2012-10-30T06:42:27Z</time>
      </trkpt>
      <trkpt lat="51.50898" lon="-0.08851">
        <ele>17.7</ele>
        <time>2012-10-30T06:42:31Z</time>
      </trkpt>
      <trkpt lat="51.50902" lon="-0.08867">
        <ele>17.5</ele>
        <time>2012-10-30T06:42:36Z</time>
      </trkpt>
      <trkpt lat="51.50902" lon="-0.08882">
        <ele>17.6</ele>
        <time>2012-10-30T06:42:39Z</time>
      </trkpt>
      <trkpt lat="51.50902" lon="-0.08899">
        <ele>17.7</ele>
        <time>2012-10-30T06:42:42Z</time>
      </trkpt>
      <trkpt lat="51.50902" lon="-0.08914">
        <ele>17.8</ele>
        <time>2012-10-30T06:42:46Z</time>
      </trkpt>
      <trkpt lat="51.50905" lon="-0.0893">
        <ele>17.9</ele>
        <time>2012-10-30T06:42:50Z</time>
      </trkpt>
      <trkpt lat="51.50905" lon="-0.08946">
        <ele>18</ele>
        <time>2012-10-30T06:42:53Z</time>
      </trkpt>
      <trkpt lat="51.50904" lon="-0.08964">
        <ele>17.6</ele>
        <time>2012-10-30T06:42:56Z</time>
      </trkpt>
      <trkpt lat="51.50901" lon="-0.08982">
        <ele>17.3</ele>
        <time>2012-10-30T06:42:59Z</time>
      </trkpt>
      <trkpt lat="51.50903" lon="-0.08997">
        <ele>16.9</ele>
        <time>2012-10-30T06:43:02Z</time>
      </trkpt>
      <trkpt lat="51.50907" lon="-0.09012">
        <ele>16.5</ele>
        <time>2012-10-30T06:43:05Z</time>
      </trkpt>
      <trkpt lat="51.5091" lon="-0.09025">
        <ele>16.2</ele>
        <time>2012-10-30T06:43:08Z</time>
      </trkpt>
      <trkpt lat="51.50912" lon="-0.09044">
        <ele>15.8</ele>
        <time>2012-10-30T06:43:12Z</time>
      </trkpt>
      <trkpt lat="51.50917" lon="-0.09057">
        <ele>15.5</ele>
        <time>2012-10-30T06:43:15Z</time>
      </trkpt>
      <trkpt lat="51.50924" lon="-0.09066">
        <ele>15.1</ele>
        <time>2012-10-30T06:43:18Z</time>
      </trkpt>
      <trkpt lat="51.50934" lon="-0.0907">
        <ele>14.4</ele>
        <time>2012-10-30T06:43:22Z</time>
      </trkpt>
      <trkpt lat="51.50949" lon="-0.09082">
        <ele>13.6</ele>
        <time>2012-10-30T06:43:32Z</time>
      </trkpt>
      <trkpt lat="51.5095" lon="-0.0912">
        <ele>12.9</ele>
        <time>2012-10-30T06:43:41Z</time>
      </trkpt>
      <trkpt lat="51.50933" lon="-0.09094">
        <ele>12.5</ele>
        <time>2012-10-30T06:43:43Z</time>
      </trkpt>
      <trkpt lat="51.5093" lon="-0.09111">
        <ele>11.8</ele>
        <time>2012-10-30T06:43:45Z</time>
      </trkpt>
      <trkpt lat="51.50927" lon="-0.09124">
        <ele>11.1</ele>
        <time>2012-10-30T06:43:47Z</time>
      </trkpt>
      <trkpt lat="51.50935" lon="-0.0917">
        <ele>10.4</ele>
        <time>2012-10-30T06:43:49Z</time>
      </trkpt>
      <trkpt lat="51.5094" lon="-0.09184">
        <ele>9.6</ele>
        <time>2012-10-30T06:43:51Z</time>
      </trkpt>
      <trkpt lat="51.50944" lon="-0.09199">
        <ele>8.9</ele>
        <time>2012-10-30T06:43:53Z</time>
      </trkpt>
      <trkpt lat="51.50948" lon="-0.09218">
        <ele>7.9</ele>
        <time>2012-10-30T06:43:56Z</time>
      </trkpt>
      <trkpt lat="51.50952" lon="-0.09232">
        <ele>6.9</ele>
        <time>2012-10-30T06:44:00Z</time>
      </trkpt>
      <trkpt lat="51.50954" lon="-0.0925">
        <ele>7.2</ele>
        <time>2012-10-30T06:44:05Z</time>
      </trkpt>
      <trkpt lat="51.50955" lon="-0.09266">
        <ele>6.5</ele>
        <time>2012-10-30T06:44:08Z</time>
      </trkpt>
      <trkpt lat="51.50956" lon="-0.09285">
        <ele>6.8</ele>
        <time>2012-10-30T06:44:11Z</time>
      </trkpt>
      <trkpt lat="51.50958" lon="-0.09305">
        <ele>6.2</ele>
        <time>2012-10-30T06:44:14Z</time>
      </trkpt>
      <trkpt lat="51.5096" lon="-0.0932">
        <ele>5.9</ele>
        <time>2012-10-30T06:44:17Z</time>
      </trkpt>
      <trkpt lat="51.50962" lon="-0.09335">
        <ele>5.6</ele>
        <time>2012-10-30T06:44:20Z</time>
      </trkpt>
      <trkpt lat="51.5096" lon="-0.09355">
        <ele>5.4</ele>
        <time>2012-10-30T06:44:23Z</time>
      </trkpt>
      <trkpt lat="51.50968" lon="-0.09332">
        <ele>5.1</ele>
        <time>2012-10-30T06:44:36Z</time>
      </trkpt>
      <trkpt lat="51.5092" lon="-0.09361">
        <ele>4.8</ele>
        <time>2012-10-30T06:44:39Z</time>
      </trkpt>
      <trkpt lat="51.50915" lon="-0.09421">
        <ele>4.8</ele>
        <time>2012-10-30T06:44:45Z</time>
      </trkpt>
      <trkpt lat="51.50929" lon="-0.09386">
        <ele>5.5</ele>
        <time>2012-10-30T06:44:47Z</time>
      </trkpt>
      <trkpt lat="51.50937" lon="-0.094">
        <ele>5.2</ele>
        <time>2012-10-30T06:44:50Z</time>
      </trkpt>
      <trkpt lat="51.50946" lon="-0.09414">
        <ele>5.8</ele>
        <time>2012-10-30T06:44:53Z</time>
      </trkpt>
      <trkpt lat="51.50952" lon="-0.09426">
        <ele>5.5</ele>
        <time>2012-10-30T06:44:56Z</time>
      </trkpt>
      <trkpt lat="51.50958" lon="-0.09441">
        <ele>6.2</ele>
        <time>2012-10-30T06:45:00Z</time>
      </trkpt>
      <trkpt lat="51.50966" lon="-0.09454">
        <ele>6.8</ele>
        <time>2012-10-30T06:45:04Z</time>
      </trkpt>
      <trkpt lat="51.50972" lon="-0.09465">
        <ele>7.1</ele>
        <time>2012-10-30T06:45:08Z</time>
      </trkpt>
      <trkpt lat="51.50977" lon="-0.09479">
        <ele>7.4</ele>
        <time>2012-10-30T06:45:13Z</time>
      </trkpt>
      <trkpt lat="51.50978" lon="-0.09495">
        <ele>7.6</ele>
        <time>2012-10-30T06:45:17Z</time>
      </trkpt>
      <trkpt lat="51.5098" lon="-0.09511">
        <ele>8.3</ele>
        <time>2012-10-30T06:45:20Z</time>
      </trkpt>
      <trkpt lat="51.50984" lon="-0.09528">
        <ele>9.4</ele>
        <time>2012-10-30T06:45:23Z</time>
      </trkpt>
      <trkpt lat="51.50994" lon="-0.09536">
        <ele>9.8</ele>
        <time>2012-10-30T06:45:26Z</time>
      </trkpt>
      <trkpt lat="51.51003" lon="-0.0954">
        <ele>10.3</ele>
        <time>2012-10-30T06:45:29Z</time>
      </trkpt>
      <trkpt lat="51.51012" lon="-0.09538">
        <ele>10.7</ele>
        <time>2012-10-30T06:45:32Z</time>
      </trkpt>
      <trkpt lat="51.51023" lon="-0.09531">
        <ele>11.2</ele>
        <time>2012-10-30T06:45:36Z</time>
      </trkpt>
      <trkpt lat="51.51052" lon="-0.0951">
        <ele>11.7</ele>
        <time>2012-10-30T06:45:39Z</time>
      </trkpt>
      <trkpt lat="51.51059" lon="-0.09502">
        <ele>12.3</ele>
        <time>2012-10-30T06:45:42Z</time>
      </trkpt>
      <trkpt lat="51.51069" lon="-0.09499">
        <ele>13.2</ele>
        <time>2012-10-30T06:45:44Z</time>
      </trkpt>
      <trkpt lat="51.51078" lon="-0.09502">
        <ele>14.1</ele>
        <time>2012-10-30T06:45:47Z</time>
      </trkpt>
      <trkpt lat="51.51085" lon="-0.09513">
        <ele>15</ele>
        <time>2012-10-30T06:45:50Z</time>
      </trkpt>
      <trkpt lat="51.51104" lon="-0.09562">
        <ele>15.5</ele>
        <time>2012-10-30T06:45:54Z</time>
      </trkpt>
      <trkpt lat="51.51109" lon="-0.0958">
        <ele>15.6</ele>
        <time>2012-10-30T06:45:58Z</time>
      </trkpt>
      <trkpt lat="51.51112" lon="-0.09597">
        <ele>15.7</ele>
        <time>2012-10-30T06:46:01Z</time>
      </trkpt>
      <trkpt lat="51.51117" lon="-0.09615">
        <ele>15.8</ele>
        <time>2012-10-30T06:46:04Z</time>
      </trkpt>
      <trkpt lat="51.51122" lon="-0.09629">
        <ele>15.9</ele>
        <time>2012-10-30T06:46:07Z</time>
      </trkpt>
      <trkpt lat="51.51126" lon="-0.09646">
        <ele>16</ele>
        <time>2012-10-30T06:46:11Z</time>
      </trkpt>
      <trkpt lat="51.51124" lon="-0.09661">
        <ele>16</ele>
        <time>2012-10-30T06:46:15Z</time>
      </trkpt>
      <trkpt lat="51.51115" lon="-0.09668">
        <ele>15.9</ele>
        <time>2012-10-30T06:46:19Z</time>
      </trkpt>
      <trkpt lat="51.51106" lon="-0.09676">
        <ele>15.8</ele>
        <time>2012-10-30T06:46:24Z</time>
      </trkpt>
      <trkpt lat="51.51097" lon="-0.09681">
        <ele>15.7</ele>
        <time>2012-10-30T06:46:28Z</time>
      </trkpt>
      <trkpt lat="51.51084" lon="-0.09686">
        <ele>15.6</ele>
        <time>2012-10-30T06:46:31Z</time>
      </trkpt>
      <trkpt lat="51.51076" lon="-0.09698">
        <ele>15.5</ele>
        <time>2012-10-30T06:46:33Z</time>
      </trkpt>
      <trkpt lat="51.51072" lon="-0.09716">
        <ele>15.3</ele>
        <time>2012-10-30T06:46:36Z</time>
      </trkpt>
      <trkpt lat="51.5107" lon="-0.09732">
        <ele>15.1</ele>
        <time>2012-10-30T06:46:39Z</time>
      </trkpt>
      <trkpt lat="51.51067" lon="-0.09749">
        <ele>14.9</ele>
        <time>2012-10-30T06:46:42Z</time>
      </trkpt>
      <trkpt lat="51.51067" lon="-0.09766">
        <ele>14.7</ele>
        <time>2012-10-30T06:46:45Z</time>
      </trkpt>
      <trkpt lat="51.51066" lon="-0.09782">
        <ele>14.5</ele>
        <time>2012-10-30T06:46:48Z</time>
      </trkpt>
      <trkpt lat="51.51067" lon="-0.09799">
        <ele>14.4</ele>
        <time>2012-10-30T06:46:52Z</time>
      </trkpt>
      <trkpt lat="51.51065" lon="-0.09815">
        <ele>14.3</ele>
        <time>2012-10-30T06:46:56Z</time>
      </trkpt>
      <trkpt lat="51.51064" lon="-0.09832">
        <ele>14.2</ele>
        <time>2012-10-30T06:47:00Z</time>
      </trkpt>
      <trkpt lat="51.51065" lon="-0.09847">
        <ele>14.1</ele>
        <time>2012-10-30T06:47:03Z</time>
      </trkpt>
      <trkpt lat="51.51067" lon="-0.09863">
        <ele>14</ele>
        <time>2012-10-30T06:47:06Z</time>
      </trkpt>
      <trkpt lat="51.5107" lon="-0.09881">
        <ele>14</ele>
        <time>2012-10-30T06:47:10Z</time>
      </trkpt>
      <trkpt lat="51.51072" lon="-0.09896">
        <ele>14</ele>
        <time>2012-10-30T06:47:13Z</time>
      </trkpt>
      <trkpt lat="51.51074" lon="-0.09912">
        <ele>14</ele>
        <time>2012-10-30T06:47:16Z</time>
      </trkpt>
      <trkpt lat="51.51075" lon="-0.09929">
        <ele>14</ele>
        <time>2012-10-30T06:47:19Z</time>
      </trkpt>
      <trkpt lat="51.51076" lon="-0.09944">
        <ele>14</ele>
        <time>2012-10-30T06:47:22Z</time>
      </trkpt>
      <trkpt lat="51.51078" lon="-0.09959">
        <ele>14</ele>
        <time>2012-10-30T06:47:25Z</time>
      </trkpt>
      <trkpt lat="51.5108" lon="-0.09977">
        <ele>13.9</ele>
        <time>2012-10-30T06:47:29Z</time>
      </trkpt>
      <trkpt lat="51.51083" lon="-0.09991">
        <ele>13.8</ele>
        <time>2012-10-30T06:47:33Z</time>
      </trkpt>
      <trkpt lat="51.51083" lon="-0.10006">
        <ele>13.7</ele>
        <time>2012-10-30T06:47:36Z</time>
      </trkpt>
      <trkpt lat="51.51083" lon="-0.1002">
        <ele>13.6</ele>
        <time>2012-10-30T06:47:39Z</time>
      </trkpt>
      <trkpt lat="51.51082" lon="-0.10036">
        <ele>13.5</ele>
        <time>2012-10-30T06:47:42Z</time>
      </trkpt>
      <trkpt lat="51.51079" lon="-0.10055">
        <ele>13.4</ele>
        <time>2012-10-30T06:47:45Z</time>
      </trkpt>
      <trkpt lat="51.51078" lon="-0.10072">
        <ele>13.2</ele>
        <time>2012-10-30T06:47:48Z</time>
      </trkpt>
      <trkpt lat="51.51077" lon="-0.10089">
        <ele>13</ele>
        <time>2012-10-30T06:47:51Z</time>
      </trkpt>
      <trkpt lat="51.51076" lon="-0.10106">
        <ele>12.8</ele>
        <time>2012-10-30T06:47:54Z</time>
      </trkpt>
      <trkpt lat="51.51076" lon="-0.10122">
        <ele>12.5</ele>
        <time>2012-10-30T06:47:57Z</time>
      </trkpt>
      <trkpt lat="51.51077" lon="-0.10137">
        <ele>12.1</ele>
        <time>2012-10-30T06:48:00Z</time>
      </trkpt>
      <trkpt lat="51.51077" lon="-0.10152">
        <ele>11.8</ele>
        <time>2012-10-30T06:48:03Z</time>
      </trkpt>
      <trkpt lat="51.51076" lon="-0.10169">
        <ele>11.5</ele>
        <time>2012-10-30T06:48:06Z</time>
      </trkpt>
      <trkpt lat="51.51075" lon="-0.10189">
        <ele>11.3</ele>
        <time>2012-10-30T06:48:09Z</time>
      </trkpt>
      <trkpt lat="51.51075" lon="-0.10207">
        <ele>11</ele>
        <time>2012-10-30T06:48:12Z</time>
      </trkpt>
      <trkpt lat="51.51077" lon="-0.10222">
        <ele>10.5</ele>
        <time>2012-10-30T06:48:15Z</time>
      </trkpt>
      <trkpt lat="51.51077" lon="-0.10237">
        <ele>10.2</ele>
        <time>2012-10-30T06:48:18Z</time>
      </trkpt>
      <trkpt lat="51.51078" lon="-0.10253">
        <ele>9.8</ele>
        <time>2012-10-30T06:48:21Z</time>
      </trkpt>
      <trkpt lat="51.51079" lon="-0.10268">
        <ele>9.5</ele>
        <time>2012-10-30T06:48:24Z</time>
      </trkpt>
      <trkpt lat="51.51079" lon="-0.10282">
        <ele>9.1</ele>
        <time>2012-10-30T06:48:27Z</time>
      </trkpt>
      <trkpt lat="51.51082" lon="-0.10297">
        <ele>9</ele>
        <time>2012-10-30T06:48:31Z</time>
      </trkpt>
      <trkpt lat="51.51084" lon="-0.10312">
        <ele>8.9</ele>
        <time>2012-10-30T06:48:35Z</time>
      </trkpt>
      <trkpt lat="51.51088" lon="-0.10326">
        <ele>8.8</ele>
        <time>2012-10-30T06:48:39Z</time>
      </trkpt>
      <trkpt lat="51.51092" lon="-0.10342">
        <ele>8.7</ele>
        <time>2012-10-30T06:48:43Z</time>
      </trkpt>
      <trkpt lat="51.5109" lon="-0.10362">
        <ele>8.6</ele>
        <time>2012-10-30T06:48:46Z</time>
      </trkpt>
      <trkpt lat="51.51089" lon="-0.10384">
        <ele>8.5</ele>
        <time>2012-10-30T06:48:49Z</time>
      </trkpt>
      <trkpt lat="51.51088" lon="-0.10403">
        <ele>8.6</ele>
        <time>2012-10-30T06:48:52Z</time>
      </trkpt>
      <trkpt lat="51.51087" lon="-0.10418">
        <ele>8.7</ele>
        <time>2012-10-30T06:48:58Z</time>
      </trkpt>
      <trkpt lat="51.51086" lon="-0.10433">
        <ele>8.8</ele>
        <time>2012-10-30T06:49:05Z</time>
      </trkpt>
      <trkpt lat="51.51085" lon="-0.10449">
        <ele>8.9</ele>
        <time>2012-10-30T06:49:07Z</time>
      </trkpt>
      <trkpt lat="51.51085" lon="-0.10468">
        <ele>9.3</ele>
        <time>2012-10-30T06:49:09Z</time>
      </trkpt>
      <trkpt lat="51.51084" lon="-0.10484">
        <ele>9.5</ele>
        <time>2012-10-30T06:49:11Z</time>
      </trkpt>
      <trkpt lat="51.51083" lon="-0.10498">
        <ele>9.8</ele>
        <time>2012-10-30T06:49:13Z</time>
      </trkpt>
      <trkpt lat="51.51083" lon="-0.10513">
        <ele>10.1</ele>
        <time>2012-10-30T06:49:15Z</time>
      </trkpt>
      <trkpt lat="51.51081" lon="-0.10533">
        <ele>10.4</ele>
        <time>2012-10-30T06:49:18Z</time>
      </trkpt>
      <trkpt lat="51.51078" lon="-0.1055">
        <ele>10.8</ele>
        <time>2012-10-30T06:49:22Z</time>
      </trkpt>
      <trkpt lat="51.51079" lon="-0.10566">
        <ele>11.3</ele>
        <time>2012-10-30T06:49:26Z</time>
      </trkpt>
      <trkpt lat="51.51083" lon="-0.10581">
        <ele>11.7</ele>
        <time>2012-10-30T06:49:29Z</time>
      </trkpt>
      <trkpt lat="51.51084" lon="-0.10596">
        <ele>12.2</ele>
        <time>2012-10-30T06:49:32Z</time>
      </trkpt>
      <trkpt lat="51.51085" lon="-0.10613">
        <ele>12.4</ele>
        <time>2012-10-30T06:49:35Z</time>
      </trkpt>
      <trkpt lat="51.51084" lon="-0.10632">
        <ele>12.5</ele>
        <time>2012-10-30T06:49:38Z</time>
      </trkpt>
      <trkpt lat="51.51084" lon="-0.10651">
        <ele>12.5</ele>
        <time>2012-10-30T06:49:41Z</time>
      </trkpt>
      <trkpt lat="51.51085" lon="-0.10669">
        <ele>12.4</ele>
        <time>2012-10-30T06:49:44Z</time>
      </trkpt>
      <trkpt lat="51.51086" lon="-0.10686">
        <ele>12.3</ele>
        <time>2012-10-30T06:49:47Z</time>
      </trkpt>
      <trkpt lat="51.51088" lon="-0.10703">
        <ele>11.9</ele>
        <time>2012-10-30T06:49:50Z</time>
      </trkpt>
      <trkpt lat="51.51088" lon="-0.10719">
        <ele>11.5</ele>
        <time>2012-10-30T06:49:53Z</time>
      </trkpt>
      <trkpt lat="51.51087" lon="-0.10735">
        <ele>11</ele>
        <time>2012-10-30T06:49:56Z</time>
      </trkpt>
      <trkpt lat="51.51088" lon="-0.1075">
        <ele>10.5</ele>
        <time>2012-10-30T06:49:59Z</time>
      </trkpt>
      <trkpt lat="51.51088" lon="-0.10769">
        <ele>9.9</ele>
        <time>2012-10-30T06:50:03Z</time>
      </trkpt>
      <trkpt lat="51.51088" lon="-0.10785">
        <ele>9.4</ele>
        <time>2012-10-30T06:50:06Z</time>
      </trkpt>
      <trkpt lat="51.51088" lon="-0.10801">
        <ele>9.1</ele>
        <time>2012-10-30T06:50:09Z</time>
      </trkpt>
      <trkpt lat="51.51088" lon="-0.10817">
        <ele>8.8</ele>
        <time>2012-10-30T06:50:12Z</time>
      </trkpt>
      <trkpt lat="51.51088" lon="-0.10832">
        <ele>8.5</ele>
        <time>2012-10-30T06:50:15Z</time>
      </trkpt>
      <trkpt lat="51.51088" lon="-0.10847">
        <ele>8.3</ele>
        <time>2012-10-30T06:50:19Z</time>
      </trkpt>
      <trkpt lat="51.51087" lon="-0.10866">
        <ele>8</ele>
        <time>2012-10-30T06:50:24Z</time>
      </trkpt>
      <trkpt lat="51.51087" lon="-0.10882">
        <ele>8</ele>
        <time>2012-10-30T06:50:27Z</time>
      </trkpt>
      <trkpt lat="51.51087" lon="-0.10898">
        <ele>8</ele>
        <time>2012-10-30T06:50:30Z</time>
      </trkpt>
      <trkpt lat="51.51088" lon="-0.10914">
        <ele>8</ele>
        <time>2012-10-30T06:50:33Z</time>
      </trkpt>
      <trkpt lat="51.51089" lon="-0.10929">
        <ele>8</ele>
        <time>2012-10-30T06:50:36Z</time>
      </trkpt>
      <trkpt lat="51.51089" lon="-0.10944">
        <ele>8</ele>
        <time>2012-10-30T06:50:39Z</time>
      </trkpt>
      <trkpt lat="51.5109" lon="-0.1096">
        <ele>8.4</ele>
        <time>2012-10-30T06:50:42Z</time>
      </trkpt>
      <trkpt lat="51.51091" lon="-0.10976">
        <ele>8.7</ele>
        <time>2012-10-30T06:50:45Z</time>
      </trkpt>
      <trkpt lat="51.5109" lon="-0.10993">
        <ele>9.1</ele>
        <time>2012-10-30T06:50:48Z</time>
      </trkpt>
      <trkpt lat="51.5109" lon="-0.11009">
        <ele>9.5</ele>
        <time>2012-10-30T06:50:51Z</time>
      </trkpt>
      <trkpt lat="51.5109" lon="-0.11026">
        <ele>9.8</ele>
        <time>2012-10-30T06:50:54Z</time>
      </trkpt>
      <trkpt lat="51.51089" lon="-0.11043">
        <ele>10.5</ele>
        <time>2012-10-30T06:50:57Z</time>
      </trkpt>
      <trkpt lat="51.51089" lon="-0.1106">
        <ele>11.3</ele>
        <time>2012-10-30T06:51:00Z</time>
      </trkpt>
      <trkpt lat="51.51089" lon="-0.11076">
        <ele>12</ele>
        <time>2012-10-30T06:51:03Z</time>
      </trkpt>
      <trkpt lat="51.5109" lon="-0.11092">
        <ele>12.7</ele>
        <time>2012-10-30T06:51:06Z</time>
      </trkpt>
      <trkpt lat="51.51091" lon="-0.11109">
        <ele>13.5</ele>
        <time>2012-10-30T06:51:09Z</time>
      </trkpt>
      <trkpt lat="51.5109" lon="-0.11125">
        <ele>14.1</ele>
        <time>2012-10-30T06:51:12Z</time>
      </trkpt>
      <trkpt lat="51.5109" lon="-0.11141">
        <ele>14.4</ele>
        <time>2012-10-30T06:51:15Z</time>
      </trkpt>
      <trkpt lat="51.51089" lon="-0.11157">
        <ele>14.6</ele>
        <time>2012-10-30T06:51:18Z</time>
      </trkpt>
      <trkpt lat="51.5109" lon="-0.11175">
        <ele>14.9</ele>
        <time>2012-10-30T06:51:22Z</time>
      </trkpt>
      <trkpt lat="51.5109" lon="-0.11191">
        <ele>15.2</ele>
        <time>2012-10-30T06:51:27Z</time>
      </trkpt>
      <trkpt lat="51.51089" lon="-0.11208">
        <ele>15.5</ele>
        <time>2012-10-30T06:51:31Z</time>
      </trkpt>
      <trkpt lat="51.51088" lon="-0.11225">
        <ele>15.4</ele>
        <time>2012-10-30T06:51:35Z</time>
      </trkpt>
      <trkpt lat="51.51087" lon="-0.11245">
        <ele>15.3</ele>
        <time>2012-10-30T06:51:39Z</time>
      </trkpt>
      <trkpt lat="51.51087" lon="-0.1126">
        <ele>15.2</ele>
        <time>2012-10-30T06:51:42Z</time>
      </trkpt>
      <trkpt lat="51.51086" lon="-0.11275">
        <ele>15.1</ele>
        <time>2012-10-30T06:51:45Z</time>
      </trkpt>
      <trkpt lat="51.51085" lon="-0.11291">
        <ele>15.2</ele>
        <time>2012-10-30T06:51:48Z</time>
      </trkpt>
      <trkpt lat="51.51084" lon="-0.11307">
        <ele>15.4</ele>
        <time>2012-10-30T06:51:51Z</time>
      </trkpt>
      <trkpt lat="51.51081" lon="-0.11321">
        <ele>15.5</ele>
        <time>2012-10-30T06:51:54Z</time>
      </trkpt>
      <trkpt lat="51.5108" lon="-0.11341">
        <ele>15.7</ele>
        <time>2012-10-30T06:51:58Z</time>
      </trkpt>
      <trkpt lat="51.5108" lon="-0.11358">
        <ele>15.9</ele>
        <time>2012-10-30T06:52:01Z</time>
      </trkpt>
      <trkpt lat="51.51079" lon="-0.11376">
        <ele>16.2</ele>
        <time>2012-10-30T06:52:04Z</time>
      </trkpt>
      <trkpt lat="51.51078" lon="-0.11391">
        <ele>16.5</ele>
        <time>2012-10-30T06:52:07Z</time>
      </trkpt>
      <trkpt lat="51.51075" lon="-0.11409">
        <ele>16.7</ele>
        <time>2012-10-30T06:52:11Z</time>
      </trkpt>
      <trkpt lat="51.51072" lon="-0.11425">
        <ele>17</ele>
        <time>2012-10-30T06:52:14Z</time>
      </trkpt>
      <trkpt lat="51.51069" lon="-0.1144">
        <ele>17.3</ele>
        <time>2012-10-30T06:52:17Z</time>
      </trkpt>
      <trkpt lat="51.51066" lon="-0.11455">
        <ele>17.7</ele>
        <time>2012-10-30T06:52:20Z</time>
      </trkpt>
      <trkpt lat="51.51061" lon="-0.11472">
        <ele>18</ele>
        <time>2012-10-30T06:52:24Z</time>
      </trkpt>
      <trkpt lat="51.51058" lon="-0.11488">
        <ele>17.7</ele>
        <time>2012-10-30T06:52:27Z</time>
      </trkpt>
      <trkpt lat="51.51054" lon="-0.11504">
        <ele>17.5</ele>
        <time>2012-10-30T06:52:30Z</time>
      </trkpt>
      <trkpt lat="51.5105" lon="-0.11518">
        <ele>17.2</ele>
        <time>2012-10-30T06:52:33Z</time>
      </trkpt>
      <trkpt lat="51.51047" lon="-0.11535">
        <ele>16.9</ele>
        <time>2012-10-30T06:52:38Z</time>
      </trkpt>
      <trkpt lat="51.51045" lon="-0.11549">
        <ele>16.6</ele>
        <time>2012-10-30T06:52:42Z</time>
      </trkpt>
      <trkpt lat="51.51042" lon="-0.11564">
        <ele>16.4</ele>
        <time>2012-10-30T06:52:46Z</time>
      </trkpt>
      <trkpt lat="51.51038" lon="-0.1158">
        <ele>16.1</ele>
        <time>2012-10-30T06:52:50Z</time>
      </trkpt>
      <trkpt lat="51.51035" lon="-0.11596">
        <ele>15.8</ele>
        <time>2012-10-30T06:52:53Z</time>
      </trkpt>
      <trkpt lat="51.51031" lon="-0.11612">
        <ele>15.5</ele>
        <time>2012-10-30T06:52:56Z</time>
      </trkpt>
      <trkpt lat="51.51026" lon="-0.11627">
        <ele>15.2</ele>
        <time>2012-10-30T06:52:59Z</time>
      </trkpt>
      <trkpt lat="51.51022" lon="-0.11641">
        <ele>14.8</ele>
        <time>2012-10-30T06:53:02Z</time>
      </trkpt>
      <trkpt lat="51.51017" lon="-0.11656">
        <ele>15</ele>
        <time>2012-10-30T06:53:05Z</time>
      </trkpt>
      <trkpt lat="51.51013" lon="-0.11671">
        <ele>15.2</ele>
        <time>2012-10-30T06:53:08Z</time>
      </trkpt>
      <trkpt lat="51.51012" lon="-0.11686">
        <ele>15.4</ele>
        <time>2012-10-30T06:53:11Z</time>
      </trkpt>
      <trkpt lat="51.51009" lon="-0.11701">
        <ele>15.5</ele>
        <time>2012-10-30T06:53:14Z</time>
      </trkpt>
      <trkpt lat="51.51006" lon="-0.11716">
        <ele>15.6</ele>
        <time>2012-10-30T06:53:17Z</time>
      </trkpt>
      <trkpt lat="51.51003" lon="-0.1173">
        <ele>15.7</ele>
        <time>2012-10-30T06:53:20Z</time>
      </trkpt>
      <trkpt lat="51.51" lon="-0.11745">
        <ele>15.8</ele>
        <time>2012-10-30T06:53:24Z</time>
      </trkpt>
      <trkpt lat="51.50995" lon="-0.11761">
        <ele>15.9</ele>
        <time>2012-10-30T06:53:27Z</time>
      </trkpt>
      <trkpt lat="51.50989" lon="-0.11778">
        <ele>16</ele>
        <time>2012-10-30T06:53:30Z</time>
      </trkpt>
      <trkpt lat="51.50984" lon="-0.11794">
        <ele>16.5</ele>
        <time>2012-10-30T06:53:33Z</time>
      </trkpt>
      <trkpt lat="51.50983" lon="-0.11811">
        <ele>16.2</ele>
        <time>2012-10-30T06:53:37Z</time>
      </trkpt>
      <trkpt lat="51.50979" lon="-0.11828">
        <ele>15.8</ele>
        <time>2012-10-30T06:53:42Z</time>
      </trkpt>
      <trkpt lat="51.50974" lon="-0.11842">
        <ele>15.5</ele>
        <time>2012-10-30T06:53:46Z</time>
      </trkpt>
      <trkpt lat="51.50969" lon="-0.11856">
        <ele>15.1</ele>
        <time>2012-10-30T06:53:49Z</time>
      </trkpt>
      <trkpt lat="51.50962" lon="-0.1187">
        <ele>14.7</ele>
        <time>2012-10-30T06:53:52Z</time>
      </trkpt>
      <trkpt lat="51.50954" lon="-0.11882">
        <ele>14.6</ele>
        <time>2012-10-30T06:53:56Z</time>
      </trkpt>
      <trkpt lat="51.50946" lon="-0.11892">
        <ele>14.5</ele>
        <time>2012-10-30T06:53:59Z</time>
      </trkpt>
      <trkpt lat="51.50939" lon="-0.11907">
        <ele>14.5</ele>
        <time>2012-10-30T06:54:03Z</time>
      </trkpt>
      <trkpt lat="51.50933" lon="-0.1192">
        <ele>14.4</ele>
        <time>2012-10-30T06:54:06Z</time>
      </trkpt>
      <trkpt lat="51.50926" lon="-0.11934">
        <ele>14.3</ele>
        <time>2012-10-30T06:54:10Z</time>
      </trkpt>
      <trkpt lat="51.50919" lon="-0.11945">
        <ele>13.6</ele>
        <time>2012-10-30T06:54:13Z</time>
      </trkpt>
      <trkpt lat="51.50913" lon="-0.11956">
        <ele>13.5</ele>
        <time>2012-10-30T06:54:16Z</time>
      </trkpt>
      <trkpt lat="51.50906" lon="-0.11966">
        <ele>13.5</ele>
        <time>2012-10-30T06:54:19Z</time>
      </trkpt>
      <trkpt lat="51.50898" lon="-0.11974">
        <ele>13.4</ele>
        <time>2012-10-30T06:54:22Z</time>
      </trkpt>
      <trkpt lat="51.5089" lon="-0.11982">
        <ele>13.6</ele>
        <time>2012-10-30T06:54:25Z</time>
      </trkpt>
      <trkpt lat="51.50884" lon="-0.11995">
        <ele>13.9</ele>
        <time>2012-10-30T06:54:29Z</time>
      </trkpt>
      <trkpt lat="51.50876" lon="-0.12007">
        <ele>13.9</ele>
        <time>2012-10-30T06:54:32Z</time>
      </trkpt>
      <trkpt lat="51.50867" lon="-0.12019">
        <ele>13.9</ele>
        <time>2012-10-30T06:54:35Z</time>
      </trkpt>
      <trkpt lat="51.50859" lon="-0.1203">
        <ele>13.9</ele>
        <time>2012-10-30T06:54:39Z</time>
      </trkpt>
      <trkpt lat="51.50851" lon="-0.12042">
        <ele>13.9</ele>
        <time>2012-10-30T06:54:44Z</time>
      </trkpt>
      <trkpt lat="51.50843" lon="-0.12051">
        <ele>13.9</ele>
        <time>2012-10-30T06:54:47Z</time>
      </trkpt>
      <trkpt lat="51.50834" lon="-0.12061">
        <ele>14.2</ele>
        <time>2012-10-30T06:54:50Z</time>
      </trkpt>
      <trkpt lat="51.50825" lon="-0.1207">
        <ele>14.8</ele>
        <time>2012-10-30T06:54:53Z</time>
      </trkpt>
      <trkpt lat="51.50818" lon="-0.12081">
        <ele>14.5</ele>
        <time>2012-10-30T06:54:56Z</time>
      </trkpt>
      <trkpt lat="51.50819" lon="-0.12096">
        <ele>14.1</ele>
        <time>2012-10-30T06:54:59Z</time>
      </trkpt>
      <trkpt lat="51.50816" lon="-0.12115">
        <ele>13.4</ele>
        <time>2012-10-30T06:55:03Z</time>
      </trkpt>
      <trkpt lat="51.50812" lon="-0.12128">
        <ele>12.6</ele>
        <time>2012-10-30T06:55:06Z</time>
      </trkpt>
      <trkpt lat="51.50801" lon="-0.12135">
        <ele>11.9</ele>
        <time>2012-10-30T06:55:09Z</time>
      </trkpt>
      <trkpt lat="51.50791" lon="-0.12143">
        <ele>11.2</ele>
        <time>2012-10-30T06:55:12Z</time>
      </trkpt>
      <trkpt lat="51.50781" lon="-0.1215">
        <ele>10.5</ele>
        <time>2012-10-30T06:55:15Z</time>
      </trkpt>
      <trkpt lat="51.50772" lon="-0.12154">
        <ele>9.7</ele>
        <time>2012-10-30T06:55:18Z</time>
      </trkpt>
      <trkpt lat="51.50763" lon="-0.1216">
        <ele>8.6</ele>
        <time>2012-10-30T06:55:21Z</time>
      </trkpt>
      <trkpt lat="51.50753" lon="-0.12169">
        <ele>7.3</ele>
        <time>2012-10-30T06:55:25Z</time>
      </trkpt>
      <trkpt lat="51.50744" lon="-0.12175">
        <ele>6.9</ele>
        <time>2012-10-30T06:55:28Z</time>
      </trkpt>
      <trkpt lat="51.50732" lon="-0.12176">
        <ele>7.5</ele>
        <time>2012-10-30T06:55:31Z</time>
      </trkpt>
      <trkpt lat="51.50721" lon="-0.12179">
        <ele>7.6</ele>
        <time>2012-10-30T06:55:34Z</time>
      </trkpt>
      <trkpt lat="51.50715" lon="-0.12189">
        <ele>7.7</ele>
        <time>2012-10-30T06:55:37Z</time>
      </trkpt>
      <trkpt lat="51.50707" lon="-0.122">
        <ele>7.8</ele>
        <time>2012-10-30T06:55:40Z</time>
      </trkpt>
      <trkpt lat="51.507" lon="-0.12211">
        <ele>7.9</ele>
        <time>2012-10-30T06:55:48Z</time>
      </trkpt>
      <trkpt lat="51.50698" lon="-0.12212">
        <ele>8</ele>
        <time>2012-10-30T06:55:50Z</time>
      </trkpt>
    </trkseg>
  </trk>
</gpx>